M I D A S
Marine Information and Data Acquisition System
Tripno 1762 of the Zeeleeuw from 2009-07-10 07:18:04 to 2009-07-10 14:34:13
Back to CruiseResearch ActivitiesStationsMapUnderway DataData graphs

EquipmentUnitsComment
TimeDGPSUTC
LatitudeDGPSDM.mWGS84
LongitudeDGPSDM.mWGS84
TemperatureSBE03/SBE38deg celciusITS90
ConductivitySBE21S/mITS90
SalinitySBE21 Practical Salinity Units
ChlorophylAChelsea fluorimeterg/lCalibrated in Aceton
Missing or incorrect values are displayed as -999
Sea surface data collected by the RV Zeeleeuw from 2009-07-10 06:19:00 to 2009-07-10 14:42:13
                                                                                    Next 1000 lines
Time Latitude Longitude Temperature Conductivity Salinity ChlorophylA
2009-07-10 06:19:10 51°13.659 2°55.963 22.3706 4.756257 34.492081 15.262265
2009-07-10 06:19:15 51°13.659 2°55.963 22.3689 4.756154 34.491236 15.227441
2009-07-10 06:19:20 51°13.659 2°55.963 22.3762 4.75605 34.491022 15.227441
2009-07-10 06:19:25 51°13.66 2°55.963 22.3847 4.756154 34.491236 15.227441
2009-07-10 06:19:30 51°13.66 2°55.963 22.3786 4.75605 34.491653 15.227441
2009-07-10 06:19:35 51°13.66 2°55.963 22.3773 4.755946 34.489546 15.227441
2009-07-10 06:19:40 51°13.66 2°55.963 22.3783 4.755946 34.489546 15.227441
2009-07-10 06:19:45 51°13.66 2°55.963 22.3806 4.756257 34.492712 15.227441
2009-07-10 06:19:50 51°13.66 2°55.963 22.3767 4.755738 34.487225 15.227441
2009-07-10 06:19:55 51°13.661 2°55.963 22.3823 4.756257 34.492712 15.192617
2009-07-10 06:20:00 51°13.661 2°55.962 22.3797 4.755842 34.488701 15.227441
2009-07-10 06:20:05 51°13.661 2°55.962 22.3781 4.75605 34.491022 15.192617
2009-07-10 06:20:10 51°13.661 2°55.962 22.3734 4.75605 34.491022 15.192617
2009-07-10 06:20:15 51°13.661 2°55.962 22.3802 4.75605 34.491022 15.192617
2009-07-10 06:20:20 51°13.661 2°55.962 22.3805 4.755946 34.489546 15.192617
2009-07-10 06:20:25 51°13.661 2°55.962 22.3827 4.75605 34.490391 15.192617
2009-07-10 06:20:30 51°13.661 2°55.962 22.3764 4.755738 34.488487 15.192617
2009-07-10 06:20:35 51°13.662 2°55.962 22.3744 4.755738 34.488487 15.192617
2009-07-10 06:20:40 51°13.662 2°55.962 22.3726 4.755946 34.489546 15.192617
2009-07-10 06:20:45 51°13.662 2°55.962 22.3749 4.756154 34.492498 15.192617
2009-07-10 06:20:50 51°13.662 2°55.962 22.3681 4.755842 34.488701 15.192617
2009-07-10 06:20:55 51°13.661 2°55.962 22.3604 4.755946 34.491438 15.192617
2009-07-10 06:21:00 51°13.661 2°55.962 22.3602 4.755738 34.489118 15.192617
2009-07-10 06:21:05 51°13.661 2°55.962 22.3707 4.756154 34.493128 15.157793
2009-07-10 06:21:10 51°13.661 2°55.962 22.3729 4.756154 34.493128 15.157793
2009-07-10 06:21:15 51°13.661 2°55.962 22.3741 4.755946 34.490808 15.157793
2009-07-10 06:21:20 51°13.661 2°55.962 22.3762 4.755738 34.489118 15.157793
2009-07-10 06:21:25 51°13.661 2°55.962 22.3778 4.755946 34.490808 15.157793
2009-07-10 06:21:30 51°13.661 2°55.962 22.3773 4.755946 34.491438 15.157793
2009-07-10 06:21:35 51°13.661 2°55.962 22.3793 4.755842 34.489963 15.157793
2009-07-10 06:21:40 51°13.661 2°55.962 22.3762 4.755842 34.489963 15.157793
2009-07-10 06:21:45 51°13.661 2°55.962 22.3858 4.755946 34.492069 15.157793
2009-07-10 06:21:50 51°13.661 2°55.962 22.3798 4.755738 34.489749 15.157793
2009-07-10 06:21:55 51°13.661 2°55.962 22.3813 4.755946 34.491438 15.157793
2009-07-10 06:22:00 51°13.661 2°55.962 22.378 4.755634 34.489534 15.122969
2009-07-10 06:22:05 51°13.661 2°55.962 22.3753 4.755634 34.489534 15.122969
2009-07-10 06:22:10 51°13.661 2°55.962 22.3731 4.755842 34.491855 15.122969
2009-07-10 06:22:15 51°13.661 2°55.962 22.3757 4.755738 34.492272 15.122969
2009-07-10 06:22:20 51°13.661 2°55.962 22.3827 4.755738 34.491641 15.122969
2009-07-10 06:22:25 51°13.661 2°55.962 22.3825 4.755738 34.493534 15.122969
2009-07-10 06:22:30 51°13.661 2°55.962 22.3792 4.75553 34.491213 15.122969
2009-07-10 06:22:35 51°13.661 2°55.962 22.3778 4.755738 34.494165 15.122969
2009-07-10 06:22:40 51°13.661 2°55.962 22.377 4.755738 34.494165 15.122969
2009-07-10 06:22:45 51°13.661 2°55.962 22.3788 4.75553 34.492475 15.088145
2009-07-10 06:22:50 51°13.661 2°55.962 22.379 4.755634 34.492689 15.122969
2009-07-10 06:22:55 51°13.661 2°55.962 22.3757 4.75553 34.493106 15.088145
2009-07-10 06:23:00 51°13.661 2°55.962 22.3728 4.755323 34.489523 15.122969
2009-07-10 06:23:05 51°13.661 2°55.962 22.379 4.755634 34.492689 15.088145
2009-07-10 06:23:10 51°13.661 2°55.962 22.3801 4.755634 34.492689 15.088145
2009-07-10 06:23:15 51°13.662 2°55.962 22.3779 4.755323 34.490154 15.088145
2009-07-10 06:23:20 51°13.662 2°55.962 22.3692 4.755426 34.490368 15.088145
2009-07-10 06:23:25 51°13.662 2°55.962 22.3744 4.755426 34.492261 15.053321
2009-07-10 06:23:30 51°13.662 2°55.962 22.3745 4.755219 34.489309 15.088145
2009-07-10 06:23:35 51°13.662 2°55.962 22.3747 4.755426 34.49163 15.088145
2009-07-10 06:23:40 51°13.662 2°55.962 22.3738 4.755426 34.49163 15.088145
2009-07-10 06:23:45 51°13.662 2°55.962 22.3783 4.755219 34.489309 15.053321
2009-07-10 06:23:50 51°13.662 2°55.962 22.3777 4.755219 34.489309 15.088145
2009-07-10 06:23:55 51°13.662 2°55.962 22.3877 4.755426 34.49163 15.053321
2009-07-10 06:24:00 51°13.662 2°55.962 22.3852 4.755115 34.488464 15.053321
2009-07-10 06:24:05 51°13.662 2°55.962 22.385 4.755323 34.489523 15.053321
2009-07-10 06:24:10 51°13.662 2°55.962 22.3842 4.755323 34.489523 15.053321
2009-07-10 06:24:15 51°13.662 2°55.961 22.3895 4.755115 34.488464 15.053321
2009-07-10 06:24:20 51°13.662 2°55.961 22.3802 4.755219 34.488678 15.053321
2009-07-10 06:24:25 51°13.662 2°55.961 22.3797 4.755115 34.487833 15.053321
2009-07-10 06:24:30 51°13.662 2°55.961 22.3766 4.755219 34.489309 15.053321
2009-07-10 06:24:35 51°13.662 2°55.961 22.3781 4.755219 34.48994 15.018497
2009-07-10 06:24:40 51°13.662 2°55.961 22.3722 4.755219 34.48994 15.018497
2009-07-10 06:24:45 51°13.662 2°55.961 22.3716 4.755115 34.489725 15.018497
2009-07-10 06:24:49 51°13.662 2°55.961 22.3708 4.755011 34.48888 15.018497
2009-07-10 06:24:54 51°13.662 2°55.961 22.3711 4.755323 34.492678 15.018497
2009-07-10 06:24:59 51°13.662 2°55.961 22.3692 4.754803 34.487821 15.018497
2009-07-10 06:25:05 51°13.662 2°55.961 22.3766 4.755219 34.491833 15.018497
2009-07-10 06:25:10 51°13.662 2°55.961 22.3723 4.755219 34.491833 15.018497
2009-07-10 06:25:15 51°13.662 2°55.961 22.3745 4.755011 34.490773 15.018497
2009-07-10 06:25:20 51°13.662 2°55.961 22.3732 4.755011 34.490773 15.018497
2009-07-10 06:25:25 51°13.663 2°55.962 22.3763 4.755011 34.490773 15.018497
2009-07-10 06:25:29 51°13.663 2°55.962 22.3759 4.754907 34.489928 15.018497
2009-07-10 06:25:34 51°13.663 2°55.962 22.3769 4.755011 34.491404 14.983672
2009-07-10 06:25:39 51°13.663 2°55.962 22.3815 4.755011 34.491404 14.983672
2009-07-10 06:25:45 51°13.663 2°55.961 22.378 4.754803 34.488452 14.983672
2009-07-10 06:25:50 51°13.663 2°55.962 22.3825 4.755011 34.490773 14.983672
2009-07-10 06:25:55 51°13.663 2°55.962 22.3749 4.754803 34.489714 14.983672
2009-07-10 06:26:00 51°13.663 2°55.962 22.374 4.754803 34.490976 14.983672
2009-07-10 06:26:05 51°13.663 2°55.961 22.3743 4.754803 34.491607 14.983672
2009-07-10 06:26:10 51°13.663 2°55.961 22.3799 4.754803 34.491607 14.983672
2009-07-10 06:26:14 51°13.663 2°55.962 22.3817 4.754699 34.490762 14.983672
2009-07-10 06:26:19 51°13.663 2°55.962 22.3792 4.754699 34.491393 14.983672
2009-07-10 06:26:25 51°13.663 2°55.962 22.3807 4.754596 34.489917 14.983672
2009-07-10 06:26:30 51°13.663 2°55.961 22.3781 4.754699 34.491393 14.948848
2009-07-10 06:26:35 51°13.663 2°55.961 22.3867 4.754388 34.486964 14.983672
2009-07-10 06:26:40 51°13.663 2°55.961 22.3815 4.754388 34.486964 14.983672
2009-07-10 06:26:45 51°13.663 2°55.961 22.3859 4.754699 34.490762 14.948848
2009-07-10 06:26:50 51°13.663 2°55.961 22.3863 4.754388 34.486334 14.948848
2009-07-10 06:26:55 51°13.663 2°55.962 22.3857 4.754596 34.488655 14.948848
2009-07-10 06:27:00 51°13.663 2°55.961 22.382 4.754388 34.486964 14.948848
2009-07-10 06:27:05 51°13.663 2°55.961 22.3863 4.754492 34.487179 14.948848
2009-07-10 06:27:10 51°13.663 2°55.961 22.3837 4.754492 34.487179 14.948848
2009-07-10 06:27:15 51°13.663 2°55.961 22.3841 4.754596 34.489286 14.948848
2009-07-10 06:27:20 51°13.663 2°55.961 22.3742 4.75418 34.484643 14.948848
2009-07-10 06:27:25 51°13.663 2°55.961 22.3834 4.754492 34.489072 14.948848
2009-07-10 06:27:30 51°13.663 2°55.961 22.3827 4.754388 34.486334 14.948848
2009-07-10 06:27:35 51°13.663 2°55.961 22.3834 4.754492 34.489072 14.914024
2009-07-10 06:27:40 51°13.663 2°55.961 22.3855 4.754492 34.489072 14.914024
2009-07-10 06:27:45 51°13.663 2°55.961 22.3871 4.754284 34.486119 14.914024
2009-07-10 06:27:50 51°13.663 2°55.961 22.386 4.754492 34.488441 14.914024
2009-07-10 06:27:55 51°13.663 2°55.961 22.3835 4.75418 34.484012 14.914024
2009-07-10 06:28:00 51°13.663 2°55.961 22.3855 4.754596 34.488024 14.914024
2009-07-10 06:28:05 51°13.662 2°55.961 22.3862 4.75418 34.484012 14.914024
2009-07-10 06:28:10 51°13.663 2°55.961 22.3885 4.75418 34.484012 14.914024
2009-07-10 06:28:15 51°13.663 2°55.961 22.3822 4.754388 34.486334 14.914024
2009-07-10 06:28:20 51°13.662 2°55.961 22.3806 4.754388 34.486964 14.914024
2009-07-10 06:28:25 51°13.663 2°55.961 22.3808 4.75418 34.484643 14.8792
2009-07-10 06:28:30 51°13.662 2°55.961 22.3787 4.754388 34.487595 14.8792
2009-07-10 06:28:35 51°13.662 2°55.961 22.3916 4.754284 34.486119 14.914024
2009-07-10 06:28:40 51°13.662 2°55.961 22.3853 4.754284 34.486119 14.914024
2009-07-10 06:28:45 51°13.662 2°55.961 22.3824 4.754284 34.48675 14.8792
2009-07-10 06:28:50 51°13.662 2°55.961 22.3842 4.754388 34.487595 14.8792
2009-07-10 06:28:55 51°13.662 2°55.961 22.3788 4.754284 34.48675 14.8792
2009-07-10 06:29:00 51°13.662 2°55.961 22.381 4.754284 34.48675 14.8792
2009-07-10 06:29:05 51°13.662 2°55.961 22.3893 4.754284 34.486119 14.8792
2009-07-10 06:29:10 51°13.662 2°55.961 22.3839 4.754284 34.486119 14.8792
2009-07-10 06:29:15 51°13.662 2°55.961 22.3785 4.754284 34.486119 14.8792
2009-07-10 06:29:20 51°13.662 2°55.961 22.3833 4.75418 34.485274 14.8792
2009-07-10 06:29:25 51°13.662 2°55.96 22.3917 4.754284 34.487381 14.8792
2009-07-10 06:29:30 51°13.662 2°55.96 22.3873 4.75418 34.485905 14.844376
2009-07-10 06:29:35 51°13.662 2°55.96 22.3899 4.754388 34.488226 14.844376
2009-07-10 06:29:40 51°13.662 2°55.96 22.3862 4.754388 34.488226 14.844376
2009-07-10 06:29:45 51°13.662 2°55.96 22.3871 4.75418 34.485905 14.844376
2009-07-10 06:29:50 51°13.662 2°55.96 22.3864 4.75418 34.485905 14.844376
2009-07-10 06:29:55 51°13.662 2°55.96 22.39 4.754284 34.488643 14.844376
2009-07-10 06:30:00 51°13.662 2°55.96 22.3858 4.754076 34.485691 14.844376
2009-07-10 06:30:05 51°13.662 2°55.96 22.3853 4.754076 34.485691 14.844376
2009-07-10 06:30:10 51°13.662 2°55.96 22.3852 4.754284 34.488643 14.844376
2009-07-10 06:30:15 51°13.662 2°55.96 22.384 4.753972 34.485477 14.844376
2009-07-10 06:30:20 51°13.662 2°55.96 22.3834 4.75418 34.487798 14.844376
2009-07-10 06:30:25 51°13.662 2°55.96 22.381 4.75418 34.487798 14.809552
2009-07-10 06:30:30 51°13.662 2°55.96 22.3817 4.75418 34.488429 14.809552
2009-07-10 06:30:35 51°13.662 2°55.96 22.3857 4.753868 34.485263 14.809552
2009-07-10 06:30:40 51°13.662 2°55.96 22.3835 4.753868 34.485263 14.809552
2009-07-10 06:30:45 51°13.662 2°55.96 22.3847 4.75418 34.48906 14.809552
2009-07-10 06:30:50 51°13.662 2°55.96 22.3852 4.753972 34.486739 14.809552
2009-07-10 06:30:55 51°13.662 2°55.96 22.3886 4.75418 34.48906 14.809552
2009-07-10 06:31:00 51°13.662 2°55.96 22.3866 4.753972 34.48737 14.809552
2009-07-10 06:31:05 51°13.662 2°55.96 22.3852 4.753972 34.488001 14.809552
2009-07-10 06:31:10 51°13.662 2°55.96 22.3851 4.753972 34.488001 14.809552
2009-07-10 06:31:15 51°13.662 2°55.96 22.389 4.753868 34.486525 14.809552
2009-07-10 06:31:20 51°13.662 2°55.96 22.383 4.754076 34.488215 14.809552
2009-07-10 06:31:25 51°13.662 2°55.96 22.392 4.753972 34.48737 14.774728
2009-07-10 06:31:30 51°13.662 2°55.96 22.3896 4.753765 34.485679 14.774728
2009-07-10 06:31:35 51°13.662 2°55.96 22.3893 4.753765 34.485679 14.774728
2009-07-10 06:31:40 51°13.662 2°55.96 22.3889 4.753868 34.485894 14.774728
2009-07-10 06:31:45 51°13.662 2°55.96 22.3892 4.754076 34.488846 14.774728
2009-07-10 06:31:50 51°13.662 2°55.96 22.3881 4.753765 34.485048 14.774728
2009-07-10 06:31:55 51°13.662 2°55.96 22.3842 4.753868 34.486525 14.774728
2009-07-10 06:32:00 51°13.662 2°55.96 22.3862 4.753868 34.485894 14.774728
2009-07-10 06:32:05 51°13.662 2°55.96 22.3838 4.753868 34.485894 14.774728
2009-07-10 06:32:10 51°13.662 2°55.96 22.3813 4.753765 34.48631 14.774728
2009-07-10 06:32:15 51°13.662 2°55.96 22.3831 4.753868 34.487156 14.774728
2009-07-10 06:32:20 51°13.662 2°55.96 22.3926 4.753661 34.484834 14.739904
2009-07-10 06:32:25 51°13.662 2°55.96 22.3931 4.753765 34.485679 14.739904
2009-07-10 06:32:30 51°13.662 2°55.96 22.3867 4.753765 34.485679 14.739904
2009-07-10 06:32:35 51°13.662 2°55.96 22.3946 4.753972 34.488632 14.739904
2009-07-10 06:32:40 51°13.662 2°55.96 22.3866 4.753972 34.488632 14.739904
2009-07-10 06:32:45 51°13.662 2°55.96 22.3836 4.753557 34.48462 14.739904
2009-07-10 06:32:50 51°13.662 2°55.96 22.388 4.753868 34.487156 14.739904
2009-07-10 06:32:55 51°13.662 2°55.96 22.3833 4.753661 34.486727 14.739904
2009-07-10 06:33:00 51°13.662 2°55.96 22.3921 4.753765 34.48631 14.739904
2009-07-10 06:33:05 51°13.662 2°55.96 22.3882 4.753661 34.486727 14.739904
2009-07-10 06:33:10 51°13.662 2°55.96 22.3909 4.753661 34.486727 14.739904
2009-07-10 06:33:15 51°13.662 2°55.96 22.3779 4.753453 34.483775 14.739904
2009-07-10 06:33:20 51°13.662 2°55.96 22.3856 4.753972 34.489263 14.739904
2009-07-10 06:33:25 51°13.662 2°55.96 22.3764 4.753453 34.483775 14.70508
2009-07-10 06:33:30 51°13.662 2°55.96 22.377 4.753661 34.486727 14.70508
2009-07-10 06:33:35 51°13.662 2°55.96 22.3817 4.753661 34.487358 14.70508
2009-07-10 06:33:40 51°13.662 2°55.959 22.3879 4.753661 34.487358 14.70508
2009-07-10 06:33:45 51°13.662 2°55.959 22.3824 4.753765 34.488204 14.70508
2009-07-10 06:33:50 51°13.662 2°55.959 22.3857 4.753661 34.487358 14.70508
2009-07-10 06:33:55 51°13.662 2°55.96 22.3878 4.753557 34.485251 14.70508
2009-07-10 06:34:00 51°13.662 2°55.959 22.3922 4.753661 34.487358 14.70508
2009-07-10 06:34:05 51°13.662 2°55.959 22.3915 4.753453 34.485037 14.70508
2009-07-10 06:34:10 51°13.662 2°55.959 22.3879 4.753453 34.485037 14.70508
2009-07-10 06:34:15 51°13.662 2°55.96 22.3799 4.753661 34.486096 14.70508
2009-07-10 06:34:20 51°13.662 2°55.96 22.3795 4.753557 34.485251 14.670256
2009-07-10 06:34:25 51°13.663 2°55.96 22.3836 4.753557 34.48462 14.70508
2009-07-10 06:34:30 51°13.663 2°55.96 22.3857 4.753557 34.48462 14.70508
2009-07-10 06:34:35 51°13.663 2°55.96 22.382 4.753349 34.481668 14.670256
2009-07-10 06:34:40 51°13.663 2°55.96 22.3852 4.753349 34.481668 14.670256
2009-07-10 06:34:45 51°13.663 2°55.96 22.3901 4.753765 34.48631 14.670256
2009-07-10 06:34:50 51°13.663 2°55.96 22.3833 4.753453 34.484406 14.670256
2009-07-10 06:34:55 51°13.663 2°55.96 22.3843 4.753349 34.484192 14.670256
2009-07-10 06:35:00 51°13.663 2°55.96 22.3894 4.753557 34.487144 14.670256
2009-07-10 06:35:05 51°13.663 2°55.96 22.3911 4.753557 34.487144 14.670256
2009-07-10 06:35:10 51°13.663 2°55.96 22.3877 4.753349 34.483561 14.670256
2009-07-10 06:35:15 51°13.663 2°55.96 22.3884 4.753765 34.488835 14.670256
2009-07-10 06:35:20 51°13.663 2°55.96 22.3851 4.753349 34.484823 14.635432
2009-07-10 06:35:25 51°13.663 2°55.96 22.3849 4.753453 34.485668 14.635432
2009-07-10 06:35:30 51°13.663 2°55.96 22.394 4.753557 34.487144 14.635432
2009-07-10 06:35:35 51°13.663 2°55.961 22.3943 4.753453 34.485668 14.635432
2009-07-10 06:35:40 51°13.663 2°55.961 22.3893 4.753453 34.485668 14.635432
2009-07-10 06:35:45 51°13.663 2°55.96 22.3895 4.753661 34.487358 14.635432
2009-07-10 06:35:50 51°13.663 2°55.96 22.3825 4.753245 34.483346 14.635432
2009-07-10 06:35:55 51°13.663 2°55.96 22.3838 4.753453 34.485668 14.635432
2009-07-10 06:36:00 51°13.663 2°55.96 22.3779 4.753453 34.486299 14.635432
2009-07-10 06:36:05 51°13.663 2°55.96 22.386 4.753349 34.484823 14.600608
2009-07-10 06:36:10 51°13.663 2°55.96 22.3844 4.753349 34.484823 14.600608
2009-07-10 06:36:15 51°13.663 2°55.96 22.3771 4.753557 34.487144 14.600608
2009-07-10 06:36:20 51°13.663 2°55.96 22.3825 4.753349 34.486085 14.600608
2009-07-10 06:36:25 51°13.663 2°55.96 22.3835 4.753245 34.48524 14.635432
2009-07-10 06:36:30 51°13.663 2°55.96 22.382 4.753453 34.488192 14.600608
2009-07-10 06:36:35 51°13.663 2°55.96 22.3866 4.753245 34.48524 14.600608
2009-07-10 06:36:40 51°13.663 2°55.96 22.3867 4.753245 34.48524 14.600608
2009-07-10 06:36:45 51°13.663 2°55.96 22.3884 4.753453 34.487561 14.600608
2009-07-10 06:36:50 51°13.663 2°55.96 22.3901 4.753141 34.484394 14.600608
2009-07-10 06:36:55 51°13.663 2°55.96 22.3869 4.753349 34.486716 14.600608
2009-07-10 06:37:00 51°13.663 2°55.96 22.3859 4.753245 34.484608 14.600608
2009-07-10 06:37:05 51°13.663 2°55.96 22.386 4.753349 34.487347 14.565784
2009-07-10 06:37:10 51°13.663 2°55.96 22.3869 4.753349 34.487347 14.565784
2009-07-10 06:37:15 51°13.663 2°55.96 22.3897 4.753141 34.485025 14.565784
2009-07-10 06:37:20 51°13.663 2°55.959 22.3871 4.753141 34.485025 14.565784
2009-07-10 06:37:25 51°13.663 2°55.959 22.3915 4.753245 34.485871 14.565784
2009-07-10 06:37:30 51°13.663 2°55.959 22.394 4.753349 34.487978 14.565784
2009-07-10 06:37:35 51°13.663 2°55.959 22.3922 4.752934 34.483966 14.565784
2009-07-10 06:37:40 51°13.663 2°55.959 22.392 4.752934 34.483966 14.565784
2009-07-10 06:37:45 51°13.663 2°55.959 22.3894 4.753245 34.485871 14.565784
2009-07-10 06:37:50 51°13.663 2°55.959 22.3881 4.753141 34.486919 14.565784
2009-07-10 06:37:55 51°13.663 2°55.959 22.3874 4.753038 34.484811 14.53096
2009-07-10 06:38:00 51°13.663 2°55.959 22.3904 4.753245 34.488395 14.53096
2009-07-10 06:38:05 51°13.663 2°55.959 22.3869 4.753245 34.488395 14.53096
2009-07-10 06:38:10 51°13.663 2°55.959 22.3875 4.752934 34.484597 14.53096
2009-07-10 06:38:15 51°13.663 2°55.959 22.3791 4.752934 34.484597 14.53096
2009-07-10 06:38:20 51°13.663 2°55.959 22.3815 4.753038 34.486705 14.53096
2009-07-10 06:38:25 51°13.663 2°55.959 22.3893 4.752934 34.485228 14.53096
2009-07-10 06:38:30 51°13.663 2°55.959 22.3838 4.752934 34.48649 14.53096
2009-07-10 06:38:35 51°13.663 2°55.959 22.3939 4.752934 34.485228 14.53096
2009-07-10 06:38:40 51°13.663 2°55.959 22.3909 4.752934 34.485228 14.53096
2009-07-10 06:38:45 51°13.663 2°55.959 22.3932 4.753038 34.487336 14.496136
2009-07-10 06:38:50 51°13.663 2°55.959 22.3895 4.752726 34.483537 14.53096
2009-07-10 06:38:55 51°13.663 2°55.959 22.3861 4.75283 34.486276 14.496136
2009-07-10 06:39:00 51°13.663 2°55.959 22.3947 4.753038 34.487967 14.496136
2009-07-10 06:39:05 51°13.663 2°55.959 22.3931 4.75283 34.485014 14.496136
2009-07-10 06:39:10 51°13.663 2°55.959 22.3968 4.75283 34.485014 14.496136
2009-07-10 06:39:15 51°13.663 2°55.959 22.3997 4.752622 34.482692 14.496136
2009-07-10 06:39:20 51°13.663 2°55.959 22.3972 4.753038 34.485442 14.496136
2009-07-10 06:39:25 51°13.663 2°55.959 22.3988 4.75283 34.483752 14.496136
2009-07-10 06:39:30 51°13.663 2°55.959 22.3962 4.75283 34.482489 14.496136
2009-07-10 06:39:35 51°13.663 2°55.958 22.3972 4.75283 34.48312 14.496136
2009-07-10 06:39:40 51°13.662 2°55.959 22.3942 4.75283 34.48312 14.496136
2009-07-10 06:39:45 51°13.662 2°55.958 22.3914 4.752622 34.480168 14.496136
2009-07-10 06:39:50 51°13.662 2°55.958 22.3973 4.753038 34.484811 14.496136
2009-07-10 06:39:55 51°13.662 2°55.959 22.3959 4.75283 34.482489 14.461312
2009-07-10 06:40:00 51°13.662 2°55.959 22.3898 4.75283 34.48312 14.461312
2009-07-10 06:40:05 51°13.662 2°55.959 22.3928 4.752622 34.483323 14.461312
2009-07-10 06:40:10 51°13.662 2°55.959 22.4058 4.752622 34.483323 14.461312
2009-07-10 06:40:15 51°13.662 2°55.959 22.3951 4.753038 34.486705 14.461312
2009-07-10 06:40:20 51°13.662 2°55.959 22.3932 4.75283 34.483752 14.461312
2009-07-10 06:40:25 51°13.662 2°55.959 22.3882 4.752934 34.485228 14.461312
2009-07-10 06:40:30 51°13.662 2°55.959 22.3951 4.75283 34.484383 14.461312
2009-07-10 06:40:35 51°13.662 2°55.959 22.3933 4.752726 34.482906 14.426488
2009-07-10 06:40:40 51°13.662 2°55.959 22.3937 4.752726 34.482906 14.426488
2009-07-10 06:40:45 51°13.662 2°55.959 22.3961 4.752934 34.484597 14.461312
2009-07-10 06:40:50 51°13.662 2°55.959 22.3993 4.752726 34.482906 14.426488
2009-07-10 06:40:55 51°13.662 2°55.959 22.3942 4.75283 34.48312 14.426488
2009-07-10 06:41:00 51°13.662 2°55.959 22.3974 4.75283 34.485014 14.426488
2009-07-10 06:41:05 51°13.662 2°55.959 22.4063 4.75283 34.484383 14.426488
2009-07-10 06:41:10 51°13.662 2°55.959 22.4125 4.75283 34.484383 14.426488
2009-07-10 06:41:15 51°13.662 2°55.959 22.4081 4.752726 34.482906 14.426488
2009-07-10 06:41:20 51°13.662 2°55.959 22.4017 4.752934 34.484597 14.426488
2009-07-10 06:41:25 51°13.662 2°55.959 22.401 4.75283 34.484383 14.426488
2009-07-10 06:41:30 51°13.662 2°55.959 22.4047 4.752726 34.482275 14.426488
2009-07-10 06:41:35 51°13.662 2°55.959 22.3961 4.753038 34.486073 14.426488
2009-07-10 06:41:40 51°13.662 2°55.959 22.3998 4.753038 34.486073 14.426488
2009-07-10 06:41:45 51°13.662 2°55.959 22.4051 4.75283 34.483752 14.426488
2009-07-10 06:41:50 51°13.662 2°55.959 22.4034 4.75283 34.48312 14.426488
2009-07-10 06:41:55 51°13.662 2°55.959 22.4041 4.752934 34.483966 14.391664
2009-07-10 06:42:00 51°13.662 2°55.959 22.4061 4.752726 34.481644 14.426488
2009-07-10 06:42:05 51°13.662 2°55.959 22.399 4.752934 34.484597 14.391664
2009-07-10 06:42:10 51°13.662 2°55.959 22.4006 4.752934 34.484597 14.391664
2009-07-10 06:42:15 51°13.662 2°55.959 22.3948 4.75283 34.482489 14.391664
2009-07-10 06:42:20 51°13.662 2°55.959 22.3995 4.752934 34.483966 14.391664
2009-07-10 06:42:25 51°13.662 2°55.959 22.3966 4.75283 34.48312 14.391664
2009-07-10 06:42:30 51°13.662 2°55.959 22.3974 4.75283 34.484383 14.391664
2009-07-10 06:42:35 51°13.662 2°55.959 22.3923 4.75283 34.485014 14.391664
2009-07-10 06:42:40 51°13.662 2°55.959 22.39 4.75283 34.485014 14.391664
2009-07-10 06:42:45 51°13.662 2°55.959 22.3877 4.75283 34.484383 14.391664
2009-07-10 06:42:50 51°13.662 2°55.959 22.3846 4.752934 34.487753 14.356839
2009-07-10 06:42:55 51°13.662 2°55.959 22.4005 4.752934 34.48649 14.356839
2009-07-10 06:43:00 51°13.662 2°55.959 22.3982 4.752726 34.484169 14.356839
2009-07-10 06:43:05 51°13.662 2°55.959 22.3967 4.752726 34.484169 14.356839
2009-07-10 06:43:10 51°13.662 2°55.959 22.3965 4.75283 34.485645 14.356839
2009-07-10 06:43:15 51°13.662 2°55.959 22.395 4.75283 34.485645 14.356839
2009-07-10 06:43:20 51°13.662 2°55.959 22.397 4.75283 34.485014 14.356839
2009-07-10 06:43:25 51°13.662 2°55.959 22.3878 4.75283 34.486907 14.356839
2009-07-10 06:43:30 51°13.662 2°55.959 22.394 4.752726 34.485431 14.322015
2009-07-10 06:43:35 51°13.662 2°55.959 22.3835 4.75283 34.487539 14.322015
2009-07-10 06:43:40 51°13.662 2°55.959 22.3896 4.75283 34.487539 14.322015
2009-07-10 06:43:45 51°13.662 2°55.959 22.393 4.752518 34.485002 14.322015
2009-07-10 06:43:50 51°13.663 2°55.959 22.3922 4.75283 34.488801 14.322015
2009-07-10 06:43:56 51°13.663 2°55.959 22.395 4.752622 34.485848 14.322015
2009-07-10 06:44:01 51°13.662 2°55.959 22.4001 4.752726 34.486693 14.322015
2009-07-10 06:44:06 51°13.663 2°55.959 22.3994 4.752518 34.48374 14.322015
2009-07-10 06:44:11 51°13.663 2°55.959 22.397 4.752726 34.487325 14.287191
2009-07-10 06:44:16 51°13.663 2°55.959 22.3983 4.752726 34.487325 14.287191
2009-07-10 06:44:21 51°13.663 2°55.959 22.3921 4.752414 34.484157 14.322015
2009-07-10 06:44:26 51°13.663 2°55.959 22.3978 4.752726 34.487956 14.287191
2009-07-10 06:44:31 51°13.662 2°55.958 22.3969 4.75231 34.485205 14.287191
2009-07-10 06:44:36 51°13.662 2°55.958 22.4008 4.752726 34.488587 14.287191
2009-07-10 06:44:41 51°13.662 2°55.957 22.3977 4.75231 34.485205 14.287191
2009-07-10 06:44:46 51°13.661 2°55.957 22.4008 4.75231 34.485205 14.287191
2009-07-10 06:44:51 51°13.661 2°55.957 22.3945 4.752414 34.486051 14.287191
2009-07-10 06:44:56 51°13.661 2°55.957 22.3988 4.752414 34.487945 14.252367
2009-07-10 06:45:01 51°13.661 2°55.957 22.3997 4.752207 34.484991 14.287191
2009-07-10 06:45:06 51°13.662 2°55.957 22.3967 4.752518 34.488159 14.252367
2009-07-10 06:45:11 51°13.662 2°55.958 22.3956 4.752103 34.484777 14.252367
2009-07-10 06:45:16 51°13.662 2°55.958 22.3946 4.752103 34.484777 14.252367
2009-07-10 06:45:21 51°13.662 2°55.958 22.392 4.752414 34.487945 14.252367
2009-07-10 06:45:26 51°13.662 2°55.958 22.399 4.752311 34.487731 14.252367
2009-07-10 06:45:31 51°13.662 2°55.958 22.4037 4.752103 34.48604 14.252367
2009-07-10 06:45:36 51°13.662 2°55.958 22.4048 4.752103 34.48604 14.252367
2009-07-10 06:45:41 51°13.662 2°55.958 22.3977 4.752207 34.488148 14.252367
2009-07-10 06:45:46 51°13.662 2°55.958 22.3927 4.752207 34.488148 14.252367
2009-07-10 06:45:51 51°13.662 2°55.959 22.3952 4.751999 34.486457 14.217543
2009-07-10 06:45:56 51°13.662 2°55.958 22.4059 4.751999 34.486457 14.217543
2009-07-10 06:46:01 51°13.662 2°55.958 22.4111 4.751999 34.485194 14.252367
2009-07-10 06:46:06 51°13.662 2°55.958 22.4025 4.751999 34.486457 14.217543
2009-07-10 06:46:11 51°13.663 2°55.958 22.4034 4.751791 34.483503 14.217543
2009-07-10 06:46:16 51°13.663 2°55.958 22.4024 4.751791 34.483503 14.217543
2009-07-10 06:46:21 51°13.663 2°55.958 22.4015 4.752103 34.487934 14.217543
2009-07-10 06:46:26 51°13.663 2°55.958 22.4032 4.751687 34.48392 14.217543
2009-07-10 06:46:31 51°13.663 2°55.958 22.4085 4.751895 34.48498 14.217543
2009-07-10 06:46:36 51°13.662 2°55.958 22.4069 4.751791 34.484766 14.217543
2009-07-10 06:46:41 51°13.663 2°55.958 22.3972 4.751583 34.483075 14.182719
2009-07-10 06:46:46 51°13.662 2°55.958 22.3983 4.751583 34.483075 14.182719
2009-07-10 06:46:51 51°13.663 2°55.958 22.4078 4.751791 34.485397 14.217543
2009-07-10 06:46:56 51°13.663 2°55.958 22.403 4.751687 34.484552 14.182719
2009-07-10 06:47:01 51°13.663 2°55.958 22.4025 4.75148 34.483492 14.182719
2009-07-10 06:47:06 51°13.663 2°55.958 22.3973 4.751687 34.485814 14.182719
2009-07-10 06:47:11 51°13.662 2°55.958 22.4062 4.751791 34.486028 14.182719
2009-07-10 06:47:16 51°13.662 2°55.958 22.4048 4.751791 34.486028 14.182719
2009-07-10 06:47:21 51°13.663 2°55.958 22.4023 4.751272 34.481169 14.182719
2009-07-10 06:47:26 51°13.663 2°55.958 22.4001 4.751687 34.485183 14.182719
2009-07-10 06:47:31 51°13.663 2°55.958 22.4018 4.751687 34.485183 14.182719
2009-07-10 06:47:36 51°13.663 2°55.959 22.3953 4.751376 34.482015 14.147895
2009-07-10 06:47:41 51°13.663 2°55.959 22.4 4.751583 34.483706 14.147895
2009-07-10 06:47:46 51°13.663 2°55.959 22.4084 4.751583 34.483706 14.147895
2009-07-10 06:47:51 51°13.663 2°55.959 22.3992 4.75148 34.48286 14.147895
2009-07-10 06:47:56 51°13.663 2°55.959 22.4014 4.751376 34.482015 14.147895
2009-07-10 06:48:01 51°13.663 2°55.959 22.3997 4.751583 34.484969 14.147895
2009-07-10 06:48:06 51°13.663 2°55.959 22.3995 4.751376 34.483909 14.147895
2009-07-10 06:48:11 51°13.663 2°55.959 22.403 4.751376 34.483909 14.147895
2009-07-10 06:48:16 51°13.664 2°55.959 22.4044 4.751376 34.483909 14.147895
2009-07-10 06:48:21 51°13.664 2°55.959 22.4014 4.751272 34.483063 14.113071
2009-07-10 06:48:26 51°13.664 2°55.959 22.4015 4.75148 34.485386 14.113071
2009-07-10 06:48:31 51°13.664 2°55.959 22.3976 4.751272 34.483695 14.113071
2009-07-10 06:48:36 51°13.664 2°55.959 22.4006 4.751272 34.484326 14.113071
2009-07-10 06:48:41 51°13.663 2°55.959 22.3795 4.751272 34.484326 14.113071
2009-07-10 06:48:46 51°13.663 2°55.959 22.384 4.751272 34.484326 14.113071
2009-07-10 06:48:51 51°13.663 2°55.959 22.3952 4.751168 34.483481 14.113071
2009-07-10 06:48:56 51°13.663 2°55.959 22.3976 4.751064 34.481372 14.113071
2009-07-10 06:49:01 51°13.663 2°55.959 22.3966 4.751272 34.483695 14.113071
2009-07-10 06:49:06 51°13.663 2°55.959 22.4024 4.750856 34.479681 14.113071
2009-07-10 06:49:11 51°13.663 2°55.959 22.3986 4.751272 34.484326 14.113071
2009-07-10 06:49:16 51°13.663 2°55.959 22.3911 4.751272 34.484326 14.113071
2009-07-10 06:49:21 51°13.663 2°55.959 22.3914 4.750856 34.480312 14.113071
2009-07-10 06:49:26 51°13.663 2°55.959 22.394 4.75096 34.481789 14.078247
2009-07-10 06:49:31 51°13.663 2°55.959 22.3922 4.75096 34.481789 14.078247
2009-07-10 06:49:36 51°13.663 2°55.959 22.3903 4.751168 34.484743 14.078247
2009-07-10 06:49:41 51°13.663 2°55.959 22.3964 4.75096 34.482421 14.078247
2009-07-10 06:49:46 51°13.663 2°55.959 22.3997 4.75096 34.482421 14.078247
2009-07-10 06:49:51 51°13.663 2°55.959 22.3997 4.75096 34.483052 14.078247
2009-07-10 06:49:56 51°13.663 2°55.959 22.4099 4.750856 34.481575 14.078247
2009-07-10 06:50:01 51°13.663 2°55.959 22.4089 4.750856 34.480944 14.078247
2009-07-10 06:50:06 51°13.663 2°55.959 22.4061 4.750856 34.482207 14.043423
2009-07-10 06:50:11 51°13.663 2°55.959 22.4052 4.750752 34.48073 14.043423
2009-07-10 06:50:16 51°13.663 2°55.959 22.4144 4.750752 34.48073 14.043423
2009-07-10 06:50:21 51°13.663 2°55.959 22.4103 4.751064 34.483898 14.043423
2009-07-10 06:50:26 51°13.663 2°55.959 22.4081 4.750752 34.48073 14.043423
2009-07-10 06:50:31 51°13.663 2°55.959 22.403 4.750752 34.481992 14.043423
2009-07-10 06:50:36 51°13.663 2°55.958 22.4043 4.750752 34.481992 14.043423
2009-07-10 06:50:41 51°13.663 2°55.958 22.4045 4.750856 34.484101 14.043423
2009-07-10 06:50:46 51°13.663 2°55.958 22.4098 4.750856 34.484101 14.043423
2009-07-10 06:50:51 51°13.663 2°55.958 22.3981 4.750649 34.481147 14.043423
2009-07-10 06:50:56 51°13.663 2°55.958 22.4093 4.750752 34.482624 14.043423
2009-07-10 06:51:01 51°13.663 2°55.958 22.3982 4.750441 34.479455 14.008599
2009-07-10 06:51:06 51°13.663 2°55.958 22.3979 4.750856 34.482838 14.043423
2009-07-10 06:51:11 51°13.663 2°55.958 22.3989 4.750856 34.483469 14.008599
2009-07-10 06:51:16 51°13.663 2°55.958 22.3979 4.750856 34.483469 14.008599
2009-07-10 06:51:21 51°13.663 2°55.958 22.3999 4.750441 34.479455 14.008599
2009-07-10 06:51:26 51°13.663 2°55.958 22.4028 4.750752 34.481992 14.008599
2009-07-10 06:51:31 51°13.663 2°55.958 22.4009 4.750649 34.481778 14.008599
2009-07-10 06:51:36 51°13.663 2°55.958 22.4016 4.750545 34.480301 14.008599
2009-07-10 06:51:41 51°13.663 2°55.958 22.4068 4.750441 34.480087 14.008599
2009-07-10 06:51:46 51°13.663 2°55.958 22.4038 4.750441 34.480087 14.008599
2009-07-10 06:51:51 51°13.663 2°55.958 22.4015 4.750649 34.481778 14.008599
2009-07-10 06:51:56 51°13.663 2°55.958 22.4014 4.750337 34.479873 13.973775
2009-07-10 06:52:01 51°13.663 2°55.958 22.3958 4.750649 34.483041 14.008599
2009-07-10 06:52:06 51°13.663 2°55.958 22.4018 4.750649 34.483041 13.973775
2009-07-10 06:52:11 51°13.663 2°55.958 22.4063 4.750441 34.480718 13.973775
2009-07-10 06:52:16 51°13.663 2°55.958 22.3813 4.750441 34.480718 13.973775
2009-07-10 06:52:21 51°13.663 2°55.958 22.4 4.750545 34.482195 13.973775
2009-07-10 06:52:26 51°13.663 2°55.958 22.4002 4.750337 34.479873 13.973775
2009-07-10 06:52:31 51°13.663 2°55.958 22.402 4.750441 34.481981 13.973775
2009-07-10 06:52:36 51°13.663 2°55.958 22.4033 4.750337 34.480504 13.973775
2009-07-10 06:52:41 51°13.663 2°55.959 22.4034 4.750545 34.481564 13.938951
2009-07-10 06:52:46 51°13.663 2°55.958 22.3972 4.750545 34.481564 13.938951
2009-07-10 06:52:51 51°13.663 2°55.959 22.4033 4.750545 34.482195 13.973775
2009-07-10 06:52:56 51°13.663 2°55.959 22.4081 4.750129 34.478813 13.938951
2009-07-10 06:53:01 51°13.663 2°55.959 22.4099 4.750545 34.481564 13.973775
2009-07-10 06:53:06 51°13.663 2°55.959 22.4032 4.750233 34.479658 13.938951
2009-07-10 06:53:11 51°13.663 2°55.959 22.4109 4.750337 34.479873 13.938951
2009-07-10 06:53:16 51°13.664 2°55.959 22.3992 4.750337 34.479873 13.938951
2009-07-10 06:53:21 51°13.664 2°55.959 22.4069 4.750337 34.481767 13.938951
2009-07-10 06:53:26 51°13.664 2°55.959 22.3994 4.750129 34.478813 13.938951
2009-07-10 06:53:31 51°13.664 2°55.959 22.4017 4.750441 34.483244 13.938951
2009-07-10 06:53:36 51°13.664 2°55.959 22.408 4.750129 34.479444 13.938951
2009-07-10 06:53:41 51°13.664 2°55.959 22.41 4.750233 34.48029 13.938951
2009-07-10 06:53:46 51°13.664 2°55.959 22.4108 4.750233 34.48029 13.938951
2009-07-10 06:53:51 51°13.664 2°55.96 22.4118 4.750337 34.481135 13.938951
2009-07-10 06:53:56 51°13.664 2°55.96 22.408 4.750233 34.479658 13.904127
2009-07-10 06:54:01 51°13.664 2°55.959 22.4125 4.750233 34.480921 13.904127
2009-07-10 06:54:06 51°13.664 2°55.959 22.4144 4.750129 34.479444 13.904127
2009-07-10 06:54:11 51°13.664 2°55.959 22.4082 4.750129 34.479444 13.904127
2009-07-10 06:54:16 51°13.664 2°55.96 22.4137 4.750233 34.482816 13.904127
2009-07-10 06:54:21 51°13.664 2°55.96 22.4058 4.750025 34.479861 13.904127
2009-07-10 06:54:26 51°13.664 2°55.96 22.4044 4.750337 34.484293 13.869303
2009-07-10 06:54:31 51°13.664 2°55.96 22.4053 4.750129 34.48197 13.869303
2009-07-10 06:54:36 51°13.663 2°55.96 22.4152 4.750233 34.483447 13.904127
2009-07-10 06:54:41 51°13.664 2°55.96 22.4144 4.749922 34.480278 13.904127
2009-07-10 06:54:46 51°13.663 2°55.96 22.4128 4.749922 34.480278 13.904127
2009-07-10 06:54:51 51°13.663 2°55.96 22.416 4.750233 34.482816 13.869303
2009-07-10 06:54:56 51°13.663 2°55.96 22.4179 4.750025 34.479861 13.869303
2009-07-10 06:55:01 51°13.663 2°55.96 22.4153 4.750129 34.480707 13.869303
2009-07-10 06:55:06 51°13.664 2°55.96 22.4149 4.749921 34.477753 13.869303
2009-07-10 06:55:11 51°13.663 2°55.96 22.4124 4.750233 34.482816 13.869303
2009-07-10 06:55:16 51°13.663 2°55.96 22.4116 4.750233 34.482816 13.869303
2009-07-10 06:55:21 51°13.663 2°55.96 22.4128 4.749818 34.47817 13.869303
2009-07-10 06:55:26 51°13.663 2°55.96 22.4084 4.750129 34.482601 13.869303
2009-07-10 06:55:31 51°13.664 2°55.96 22.4091 4.749922 34.48091 13.834479
2009-07-10 06:55:36 51°13.663 2°55.96 22.4112 4.750025 34.482387 13.834479
2009-07-10 06:55:41 51°13.664 2°55.96 22.4139 4.749922 34.481541 13.834479
2009-07-10 06:55:46 51°13.664 2°55.96 22.418 4.749922 34.481541 13.834479
2009-07-10 06:55:51 51°13.663 2°55.96 22.4127 4.749922 34.481541 13.834479
2009-07-10 06:55:56 51°13.663 2°55.96 22.4161 4.749922 34.481541 13.834479
2009-07-10 06:56:01 51°13.663 2°55.96 22.4142 4.749818 34.480696 13.834479
2009-07-10 06:56:06 51°13.663 2°55.96 22.4193 4.749922 34.481541 13.799655
2009-07-10 06:56:11 51°13.664 2°55.96 22.418 4.749922 34.481541 13.799655
2009-07-10 06:56:16 51°13.664 2°55.959 22.4229 4.749922 34.481541 13.799655
2009-07-10 06:56:21 51°13.664 2°55.959 22.4221 4.74961 34.478373 13.799655
2009-07-10 06:56:26 51°13.664 2°55.959 22.4263 4.749922 34.482173 13.799655
2009-07-10 06:56:31 51°13.664 2°55.959 22.4221 4.74961 34.479004 13.834479
2009-07-10 06:56:36 51°13.664 2°55.959 22.4211 4.749818 34.481959 13.799655
2009-07-10 06:56:41 51°13.664 2°55.959 22.42 4.749714 34.481113 13.799655
2009-07-10 06:56:46 51°13.665 2°55.959 22.4229 4.749714 34.481113 13.799655
2009-07-10 06:56:51 51°13.665 2°55.96 22.4231 4.749714 34.481745 13.799655
2009-07-10 06:56:56 51°13.665 2°55.96 22.427 4.74961 34.480899 13.799655
2009-07-10 06:57:01 51°13.665 2°55.96 22.4243 4.749714 34.481745 13.799655
2009-07-10 06:57:06 51°13.665 2°55.96 22.4244 4.74961 34.480899 13.799655
2009-07-10 06:57:11 51°13.665 2°55.96 22.4248 4.74961 34.480899 13.764831
2009-07-10 06:57:16 51°13.665 2°55.96 22.4286 4.74961 34.480899 13.764831
2009-07-10 06:57:21 51°13.665 2°55.96 22.4256 4.749506 34.480053 13.764831
2009-07-10 06:57:26 51°13.665 2°55.96 22.4218 4.749506 34.479421 13.764831
2009-07-10 06:57:31 51°13.665 2°55.96 22.4241 4.74961 34.48153 13.764831
2009-07-10 06:57:36 51°13.665 2°55.96 22.4248 4.749298 34.478361 13.764831
2009-07-10 06:57:41 51°13.665 2°55.96 22.4323 4.74961 34.48153 13.764831
2009-07-10 06:57:46 51°13.665 2°55.96 22.4255 4.74961 34.48153 13.764831
2009-07-10 06:57:51 51°13.665 2°55.96 22.4203 4.749402 34.481102 13.730007
2009-07-10 06:57:56 51°13.665 2°55.96 22.4237 4.749402 34.481102 13.730007
2009-07-10 06:58:01 51°13.665 2°55.96 22.4258 4.749402 34.481734 13.730007
2009-07-10 06:58:06 51°13.665 2°55.96 22.4274 4.749402 34.481102 13.730007
2009-07-10 06:58:11 51°13.665 2°55.96 22.4197 4.749402 34.481102 13.730007
2009-07-10 06:58:16 51°13.665 2°55.96 22.4197 4.749402 34.481102 13.730007
2009-07-10 06:58:21 51°13.665 2°55.96 22.4206 4.749194 34.478779 13.730007
2009-07-10 06:58:26 51°13.665 2°55.96 22.4188 4.749298 34.480256 13.730007
2009-07-10 06:58:31 51°13.665 2°55.96 22.4248 4.749298 34.480888 13.730007
2009-07-10 06:58:36 51°13.665 2°55.96 22.4275 4.749091 34.478564 13.730007
2009-07-10 06:58:41 51°13.665 2°55.96 22.4211 4.749402 34.481734 13.695182
2009-07-10 06:58:46 51°13.665 2°55.96 22.4232 4.749402 34.481734 13.695182
2009-07-10 06:58:51 51°13.665 2°55.96 22.4286 4.749091 34.479196 13.695182
2009-07-10 06:58:56 51°13.665 2°55.96 22.4314 4.749298 34.480888 13.730007
2009-07-10 06:59:01 51°13.665 2°55.96 22.4245 4.749091 34.478564 13.695182
2009-07-10 06:59:06 51°13.665 2°55.959 22.4322 4.749195 34.480042 13.695182
2009-07-10 06:59:10 51°13.665 2°55.959 22.4322 4.749195 34.480042 13.695182
2009-07-10 06:59:16 51°13.665 2°55.959 22.438 4.749195 34.480042 13.695182
2009-07-10 06:59:21 51°13.665 2°55.959 22.4279 4.749091 34.478564 13.695182
2009-07-10 06:59:25 51°13.665 2°55.959 22.4399 4.749195 34.480042 13.695182
2009-07-10 06:59:30 51°13.664 2°55.959 22.438 4.749091 34.478564 13.695182
2009-07-10 06:59:36 51°13.664 2°55.959 22.4353 4.749091 34.477933 13.695182
2009-07-10 06:59:41 51°13.664 2°55.959 22.4293 4.749195 34.480673 13.660358
2009-07-10 06:59:45 51°13.664 2°55.959 22.4314 4.749195 34.480673 13.660358
2009-07-10 06:59:50 51°13.664 2°55.959 22.4329 4.748987 34.477719 13.695182
2009-07-10 06:59:55 51°13.664 2°55.959 22.4342 4.749195 34.480673 13.660358
2009-07-10 07:00:01 51°13.664 2°55.959 22.4355 4.748987 34.477719 13.660358
2009-07-10 07:00:05 51°13.664 2°55.959 22.4352 4.749195 34.481305 13.660358
2009-07-10 07:00:10 51°13.664 2°55.959 22.4364 4.748779 34.476658 13.625534
2009-07-10 07:00:15 51°13.664 2°55.959 22.4383 4.748779 34.476658 13.625534
2009-07-10 07:00:20 51°13.664 2°55.959 22.4344 4.749195 34.482569 13.625534
2009-07-10 07:00:25 51°13.664 2°55.959 22.4284 4.748987 34.480245 13.660358
2009-07-10 07:00:30 51°13.664 2°55.959 22.4284 4.748987 34.480245 13.625534
2009-07-10 07:00:35 51°13.664 2°55.959 22.4299 4.748987 34.480245 13.625534
2009-07-10 07:00:40 51°13.664 2°55.959 22.437 4.748779 34.479185 13.625534
2009-07-10 07:00:45 51°13.664 2°55.959 22.4321 4.748779 34.479185 13.625534
2009-07-10 07:00:50 51°13.664 2°55.959 22.4254 4.748779 34.478553 13.625534
2009-07-10 07:00:55 51°13.664 2°55.959 22.4224 4.748987 34.481508 13.625534
2009-07-10 07:01:00 51°13.664 2°55.959 22.4249 4.748779 34.478553 13.625534
2009-07-10 07:01:05 51°13.664 2°55.959 22.4361 4.748987 34.48214 13.625534
2009-07-10 07:01:10 51°13.663 2°55.959 22.4377 4.748675 34.477707 13.625534
2009-07-10 07:01:16 51°13.663 2°55.959 22.4382 4.748675 34.477707 13.625534
2009-07-10 07:01:20 51°13.663 2°55.959 22.4373 4.748987 34.48214 13.59071
2009-07-10 07:01:25 51°13.664 2°55.959 22.4332 4.748571 34.478125 13.59071
2009-07-10 07:01:30 51°13.664 2°55.959 22.434 4.748883 34.481294 13.59071
2009-07-10 07:01:35 51°13.664 2°55.959 22.4361 4.748571 34.478756 13.59071
2009-07-10 07:01:40 51°13.664 2°55.959 22.4389 4.748779 34.480448 13.59071
2009-07-10 07:01:45 51°13.664 2°55.959 22.4356 4.748779 34.480448 13.59071
2009-07-10 07:01:50 51°13.664 2°55.959 22.4355 4.748779 34.48108 13.59071
2009-07-10 07:01:55 51°13.664 2°55.959 22.4257 4.748364 34.476433 13.59071
2009-07-10 07:02:01 51°13.664 2°55.959 22.4327 4.748571 34.478756 13.59071
2009-07-10 07:02:05 51°13.664 2°55.959 22.4207 4.748675 34.480234 13.555886
2009-07-10 07:02:10 51°13.664 2°55.959 22.4356 4.748675 34.479602 13.59071
2009-07-10 07:02:15 51°13.664 2°55.959 22.4343 4.748675 34.479602 13.59071
2009-07-10 07:02:21 51°13.664 2°55.959 22.4417 4.748571 34.479388 13.555886
2009-07-10 07:02:25 51°13.664 2°55.959 22.4267 4.74826 34.475587 13.555886
2009-07-10 07:02:30 51°13.664 2°55.959 22.4393 4.748675 34.480234 13.555886
2009-07-10 07:02:35 51°13.664 2°55.959 22.4317 4.748467 34.478542 13.521062
2009-07-10 07:02:41 51°13.664 2°55.959 22.4377 4.748571 34.479388 13.555886
2009-07-10 07:02:45 51°13.663 2°55.959 22.4387 4.748571 34.479388 13.555886
2009-07-10 07:02:50 51°13.663 2°55.959 22.4432 4.748364 34.478328 13.555886
2009-07-10 07:02:55 51°13.663 2°55.959 22.4275 4.748364 34.478328 13.555886
2009-07-10 07:03:00 51°13.663 2°55.959 22.4337 4.748364 34.47896 13.521062
2009-07-10 07:03:05 51°13.663 2°55.959 22.4346 4.748467 34.479174 13.555886
2009-07-10 07:03:10 51°13.663 2°55.959 22.4251 4.748364 34.479591 13.521062
2009-07-10 07:03:15 51°13.663 2°55.959 22.4331 4.748364 34.479591 13.521062
2009-07-10 07:03:21 51°13.663 2°55.959 22.4387 4.748364 34.479591 13.521062
2009-07-10 07:03:25 51°13.663 2°55.959 22.4347 4.74826 34.478745 13.521062
2009-07-10 07:03:30 51°13.663 2°55.959 22.4286 4.74826 34.478745 13.521062
2009-07-10 07:03:35 51°13.663 2°55.959 22.4315 4.748364 34.479591 13.521062
2009-07-10 07:03:41 51°13.663 2°55.959 22.4383 4.74826 34.478114 13.521062
2009-07-10 07:03:45 51°13.663 2°55.959 22.4369 4.74826 34.478114 13.521062
2009-07-10 07:03:50 51°13.663 2°55.959 22.4451 4.748156 34.476636 13.521062
2009-07-10 07:03:56 51°13.663 2°55.959 22.4435 4.748364 34.479591 13.486238
2009-07-10 07:04:01 51°13.663 2°55.959 22.4377 4.747948 34.474944 13.486238
2009-07-10 07:04:05 51°13.663 2°55.959 22.4422 4.748364 34.479591 13.486238
2009-07-10 07:04:10 51°13.663 2°55.959 22.4435 4.748052 34.477053 13.486238
2009-07-10 07:04:15 51°13.663 2°55.959 22.444 4.748052 34.477053 13.486238
2009-07-10 07:04:20 51°13.663 2°55.959 22.444 4.748156 34.477899 13.486238
2009-07-10 07:04:25 51°13.663 2°55.959 22.4398 4.748052 34.478317 13.486238
2009-07-10 07:04:30 51°13.663 2°55.959 22.45 4.748052 34.477685 13.486238
2009-07-10 07:04:35 51°13.663 2°55.959 22.438 4.748156 34.479795 13.451414
2009-07-10 07:04:41 51°13.663 2°55.959 22.4341 4.747844 34.476625 13.451414
2009-07-10 07:04:45 51°13.663 2°55.959 22.4409 4.747844 34.476625 13.451414
2009-07-10 07:04:50 51°13.663 2°55.959 22.4531 4.74826 34.480009 13.486238
2009-07-10 07:04:55 51°13.663 2°55.959 22.4516 4.747948 34.476839 13.451414
2009-07-10 07:05:00 51°13.663 2°55.96 22.4506 4.748052 34.477053 13.451414
2009-07-10 07:05:05 51°13.663 2°55.96 22.4564 4.748052 34.478317 13.451414
2009-07-10 07:05:10 51°13.663 2°55.96 22.4573 4.747844 34.475993 13.451414
2009-07-10 07:05:15 51°13.663 2°55.96 22.4525 4.747844 34.475993 13.451414
2009-07-10 07:05:20 51°13.663 2°55.96 22.4503 4.748052 34.478949 13.451414
2009-07-10 07:05:25 51°13.663 2°55.96 22.4454 4.748052 34.478317 13.451414
2009-07-10 07:05:30 51°13.662 2°55.96 22.4422 4.748052 34.478949 13.451414
2009-07-10 07:05:35 51°13.662 2°55.96 22.4472 4.747844 34.477256 13.451414
2009-07-10 07:05:40 51°13.662 2°55.96 22.448 4.748052 34.47958 13.41659
2009-07-10 07:05:45 51°13.662 2°55.96 22.4482 4.748052 34.47958 13.41659
2009-07-10 07:05:50 51°13.662 2°55.96 22.4547 4.747636 34.475564 13.41659
2009-07-10 07:05:55 51°13.662 2°55.96 22.4546 4.748052 34.47958 13.41659
2009-07-10 07:06:00 51°13.662 2°55.96 22.4524 4.74774 34.47641 13.41659
2009-07-10 07:06:05 51°13.662 2°55.96 22.4509 4.748052 34.478949 13.41659
2009-07-10 07:06:10 51°13.662 2°55.96 22.4559 4.74774 34.47641 13.41659
2009-07-10 07:06:15 51°13.662 2°55.96 22.4598 4.74774 34.47641 13.41659
2009-07-10 07:06:20 51°13.662 2°55.96 22.4558 4.747844 34.476625 13.41659
2009-07-10 07:06:25 51°13.662 2°55.96 22.456 4.747844 34.477888 13.41659
2009-07-10 07:06:30 51°13.662 2°55.96 22.453 4.74774 34.47641 13.381766
2009-07-10 07:06:35 51°13.662 2°55.96 22.4557 4.747948 34.479366 13.381766
2009-07-10 07:06:40 51°13.662 2°55.96 22.4566 4.747637 34.476828 13.381766
2009-07-10 07:06:45 51°13.662 2°55.96 22.4593 4.747637 34.476828 13.381766
2009-07-10 07:06:50 51°13.662 2°55.96 22.4515 4.747844 34.47852 13.381766
2009-07-10 07:06:55 51°13.662 2°55.96 22.4544 4.747844 34.479152 13.381766
2009-07-10 07:07:00 51°13.662 2°55.96 22.4629 4.747637 34.476828 13.381766
2009-07-10 07:07:05 51°13.662 2°55.96 22.4628 4.74774 34.478306 13.346942
2009-07-10 07:07:10 51°13.662 2°55.96 22.4599 4.747637 34.47746 13.381766
2009-07-10 07:07:15 51°13.662 2°55.959 22.4657 4.747637 34.47746 13.381766
2009-07-10 07:07:20 51°13.662 2°55.959 22.462 4.74774 34.478306 13.381766
2009-07-10 07:07:25 51°13.662 2°55.959 22.4608 4.747637 34.476828 13.381766
2009-07-10 07:07:30 51°13.662 2°55.959 22.4642 4.74774 34.478306 13.346942
2009-07-10 07:07:35 51°13.662 2°55.959 22.4642 4.747637 34.476828 13.346942
2009-07-10 07:07:40 51°13.662 2°55.959 22.4566 4.747533 34.476614 13.346942
2009-07-10 07:07:45 51°13.662 2°55.959 22.4638 4.747533 34.476614 13.346942
2009-07-10 07:07:49 51°13.662 2°55.959 22.4663 4.74774 34.478938 13.346942
2009-07-10 07:07:54 51°13.662 2°55.959 22.4615 4.747533 34.477877 13.346942
2009-07-10 07:07:59 51°13.662 2°55.959 22.4641 4.747533 34.477245 13.346942
2009-07-10 07:08:04 51°13.663 2°55.959 22.4712 4.74774 34.480201 13.346942
2009-07-10 07:08:09 51°13.663 2°55.959 22.468 4.747429 34.476399 13.312118
2009-07-10 07:08:14 51°13.663 2°55.959 22.4686 4.747429 34.476399 13.312118
2009-07-10 07:08:19 51°13.663 2°55.959 22.4542 4.74774 34.479569 13.312118
2009-07-10 07:08:24 51°13.663 2°55.959 22.4534 4.747429 34.476399 13.312118
2009-07-10 07:08:29 51°13.662 2°55.959 22.4684 4.747533 34.477877 13.312118
2009-07-10 07:08:34 51°13.663 2°55.959 22.4732 4.747325 34.475553 13.312118
2009-07-10 07:08:38 51°13.663 2°55.959 22.4734 4.747533 34.477877 13.312118
2009-07-10 07:08:43 51°13.663 2°55.959 22.4744 4.747533 34.477877 13.312118
2009-07-10 07:08:49 51°13.663 2°55.959 22.473 4.747325 34.475553 13.312118
2009-07-10 07:08:54 51°13.663 2°55.959 22.4698 4.747533 34.477877 13.312118
2009-07-10 07:08:59 51°13.663 2°55.959 22.4655 4.747429 34.477663 13.312118
2009-07-10 07:09:04 51°13.663 2°55.959 22.4667 4.747325 34.476817 13.277294
2009-07-10 07:09:09 51°13.663 2°55.96 22.4644 4.747637 34.479987 13.277294
2009-07-10 07:09:14 51°13.663 2°55.96 22.4655 4.747637 34.479987 13.277294
2009-07-10 07:09:19 51°13.663 2°55.959 22.4697 4.747325 34.477449 13.277294
2009-07-10 07:09:24 51°13.663 2°55.96 22.4681 4.747325 34.477449 13.277294
2009-07-10 07:09:29 51°13.663 2°55.96 22.4717 4.747429 34.478295 13.277294
2009-07-10 07:09:33 51°13.663 2°55.959 22.4685 4.747325 34.476817 13.277294
2009-07-10 07:09:38 51°13.663 2°55.959 22.4673 4.747325 34.477449 13.24247
2009-07-10 07:09:43 51°13.663 2°55.959 22.4751 4.747325 34.477449 13.24247
2009-07-10 07:09:48 51°13.663 2°55.959 22.4695 4.747221 34.476603 13.277294
2009-07-10 07:09:53 51°13.663 2°55.959 22.458 4.747117 34.475756 13.24247
2009-07-10 07:09:58 51°13.663 2°55.96 22.4689 4.747221 34.476603 13.24247
2009-07-10 07:10:03 51°13.663 2°55.959 22.4666 4.747325 34.476817 13.24247
2009-07-10 07:10:08 51°13.663 2°55.96 22.4726 4.747325 34.478081 13.24247
2009-07-10 07:10:13 51°13.663 2°55.959 22.4747 4.747325 34.478081 13.24247
2009-07-10 07:10:18 51°13.663 2°55.96 22.4811 4.747221 34.475971 13.24247
2009-07-10 07:10:23 51°13.663 2°55.96 22.4769 4.747221 34.477234 13.24247
2009-07-10 07:10:29 51°13.663 2°55.96 22.4762 4.747013 34.475542 13.24247
2009-07-10 07:10:33 51°13.663 2°55.96 22.4735 4.747325 34.479976 13.207646
2009-07-10 07:10:38 51°13.663 2°55.96 22.4754 4.747013 34.476174 13.24247
2009-07-10 07:10:44 51°13.662 2°55.96 22.4781 4.747013 34.476174 13.24247
2009-07-10 07:10:49 51°13.663 2°55.96 22.4793 4.747221 34.478498 13.24247
2009-07-10 07:10:54 51°13.662 2°55.96 22.4817 4.747117 34.478284 13.207646
2009-07-10 07:10:59 51°13.662 2°55.96 22.4837 4.746909 34.47596 13.207646
2009-07-10 07:11:04 51°13.662 2°55.96 22.4903 4.747221 34.478498 13.207646
2009-07-10 07:11:09 51°13.662 2°55.96 22.4925 4.747013 34.476174 13.207646
2009-07-10 07:11:14 51°13.662 2°55.96 22.4864 4.747013 34.476174 13.207646
2009-07-10 07:11:19 51°13.662 2°55.961 22.4876 4.747117 34.47702 13.207646
2009-07-10 07:11:24 51°13.662 2°55.961 22.4896 4.747117 34.47702 13.207646
2009-07-10 07:11:29 51°13.662 2°55.961 22.4886 4.747013 34.47491 13.207646
2009-07-10 07:11:34 51°13.662 2°55.961 22.4826 4.747013 34.476806 13.172822
2009-07-10 07:11:40 51°13.662 2°55.961 22.4887 4.747013 34.475542 13.172822
2009-07-10 07:11:45 51°13.662 2°55.961 22.4888 4.747013 34.475542 13.172822
2009-07-10 07:11:50 51°13.662 2°55.961 22.4938 4.747117 34.477652 13.172822
2009-07-10 07:11:55 51°13.662 2°55.961 22.4742 4.747013 34.47491 13.207646
2009-07-10 07:12:00 51°13.662 2°55.961 22.4826 4.747117 34.477652 13.172822
2009-07-10 07:12:05 51°13.662 2°55.961 22.4837 4.746909 34.474696 13.172822
2009-07-10 07:12:10 51°13.662 2°55.961 22.4863 4.747013 34.476174 13.172822
2009-07-10 07:12:15 51°13.662 2°55.961 22.4829 4.747013 34.476174 13.172822
2009-07-10 07:12:20 51°13.662 2°55.961 22.4851 4.747013 34.475542 13.137998
2009-07-10 07:12:25 51°13.662 2°55.961 22.4865 4.747013 34.476806 13.137998
2009-07-10 07:12:30 51°13.662 2°55.961 22.4899 4.746806 34.474482 13.172822
2009-07-10 07:12:35 51°13.662 2°55.961 22.4877 4.747117 34.478284 13.137998
2009-07-10 07:12:40 51°13.662 2°55.961 22.4882 4.746909 34.47596 13.137998
2009-07-10 07:12:45 51°13.662 2°55.961 22.4836 4.746909 34.47596 13.137998
2009-07-10 07:12:50 51°13.662 2°55.96 22.489 4.747013 34.47807 13.137998
2009-07-10 07:12:55 51°13.662 2°55.96 22.4885 4.747013 34.478702 13.137998
2009-07-10 07:13:00 51°13.662 2°55.96 22.4897 4.746806 34.476377 13.137998
2009-07-10 07:13:04 51°13.662 2°55.96 22.4996 4.747013 34.478702 13.137998
2009-07-10 07:13:09 51°13.662 2°55.96 22.493 4.746702 34.474267 13.137998
2009-07-10 07:13:14 51°13.662 2°55.96 22.4883 4.746702 34.474267 13.137998
2009-07-10 07:13:19 51°13.662 2°55.96 22.4933 4.747117 34.478916 13.137998
2009-07-10 07:13:24 51°13.662 2°55.96 22.4932 4.746702 34.475531 13.103174
2009-07-10 07:13:29 51°13.662 2°55.96 22.4933 4.747013 34.477438 13.103174
2009-07-10 07:13:34 51°13.662 2°55.96 22.4925 4.747013 34.47807 13.103174
2009-07-10 07:13:39 51°13.662 2°55.96 22.4963 4.746702 34.473636 13.103174
2009-07-10 07:13:44 51°13.663 2°55.959 22.4938 4.746702 34.473636 13.103174
2009-07-10 07:13:49 51°13.663 2°55.959 22.4962 4.746909 34.476592 13.103174
2009-07-10 07:13:53 51°13.663 2°55.959 22.4938 4.746702 34.474267 13.103174
2009-07-10 07:13:58 51°13.663 2°55.959 22.4945 4.746909 34.476592 13.103174
2009-07-10 07:14:03 51°13.663 2°55.959 22.4975 4.746806 34.475745 13.103174
2009-07-10 07:14:08 51°13.663 2°55.959 22.502 4.746806 34.476377 13.06835
2009-07-10 07:14:13 51°13.663 2°55.959 22.5034 4.746806 34.476377 13.06835
2009-07-10 07:14:18 51°13.663 2°55.959 22.5013 4.746806 34.475114 13.103174
2009-07-10 07:14:23 51°13.663 2°55.959 22.5053 4.746806 34.476377 13.06835
2009-07-10 07:14:28 51°13.663 2°55.959 22.5021 4.746806 34.475745 13.06835
2009-07-10 07:14:33 51°13.662 2°55.96 22.5011 4.746909 34.477224 13.06835
2009-07-10 07:14:37 51°13.662 2°55.96 22.4963 4.74691 34.477855 13.06835
2009-07-10 07:14:42 51°13.662 2°55.96 22.4988 4.74691 34.477855 13.06835
2009-07-10 07:14:47 51°13.662 2°55.96 22.5081 4.746806 34.477009 13.06835
2009-07-10 07:14:52 51°13.662 2°55.96 22.5074 4.746702 34.475531 13.06835
2009-07-10 07:14:57 51°13.662 2°55.96 22.5078 4.74691 34.477855 13.06835
2009-07-10 07:15:02 51°13.662 2°55.96 22.5085 4.746702 34.475531 13.06835
2009-07-10 07:15:07 51°13.662 2°55.96 22.5088 4.746806 34.477009 13.06835
2009-07-10 07:15:12 51°13.662 2°55.961 22.5047 4.746806 34.477009 13.06835
2009-07-10 07:15:17 51°13.662 2°55.961 22.5007 4.747013 34.479334 13.033525
2009-07-10 07:15:22 51°13.661 2°55.961 22.497 4.746494 34.473207 13.06835
2009-07-10 07:15:27 51°13.661 2°55.961 22.4993 4.747013 34.478702 13.033525
2009-07-10 07:15:32 51°13.662 2°55.961 22.5029 4.746598 34.474053 13.033525
2009-07-10 07:15:37 51°13.662 2°55.961 22.5146 4.746909 34.477224 13.033525
2009-07-10 07:15:41 51°13.662 2°55.961 22.5155 4.746909 34.477224 13.033525
2009-07-10 07:15:47 51°13.662 2°55.961 22.5138 4.746806 34.476377 13.033525
2009-07-10 07:15:51 51°13.662 2°55.961 22.5081 4.746909 34.477224 13.033525
2009-07-10 07:15:57 51°13.662 2°55.961 22.4966 4.746702 34.475531 12.998701
2009-07-10 07:16:02 51°13.662 2°55.961 22.5007 4.746702 34.475531 13.033525
2009-07-10 07:16:07 51°13.662 2°55.96 22.5079 4.746806 34.477641 12.998701
2009-07-10 07:16:12 51°13.662 2°55.96 22.51 4.746806 34.477641 12.998701
2009-07-10 07:16:17 51°13.662 2°55.96 22.5052 4.746702 34.476163 12.998701
2009-07-10 07:16:22 51°13.662 2°55.96 22.5046 4.746806 34.478273 12.998701
2009-07-10 07:16:27 51°13.662 2°55.96 22.5065 4.746702 34.476795 12.998701
2009-07-10 07:16:32 51°13.662 2°55.96 22.5104 4.747013 34.48123 12.998701
2009-07-10 07:16:37 51°13.662 2°55.96 22.5062 4.746494 34.475734 12.998701
2009-07-10 07:16:42 51°13.662 2°55.96 22.5098 4.746494 34.475734 12.998701
2009-07-10 07:16:47 51°13.662 2°55.96 22.5139 4.74691 34.479119 12.998701
2009-07-10 07:16:52 51°13.662 2°55.96 22.515 4.746806 34.478905 12.998701
2009-07-10 07:16:57 51°13.662 2°55.96 22.513 4.746494 34.474471 12.963877
2009-07-10 07:17:01 51°13.662 2°55.96 22.5166 4.747117 34.482708 12.963877
2009-07-10 07:17:07 51°13.662 2°55.96 22.5011 4.74639 34.474256 12.963877
2009-07-10 07:17:12 51°13.662 2°55.96 22.5212 4.74639 34.474256 12.963877
2009-07-10 07:17:17 51°13.662 2°55.96 22.5078 4.74691 34.479751 12.963877
2009-07-10 07:17:21 51°13.662 2°55.96 22.5074 4.746494 34.475734 12.963877
2009-07-10 07:17:27 51°13.662 2°55.96 22.5091 4.74691 34.479119 12.963877
2009-07-10 07:17:32 51°13.663 2°55.96 22.5083 4.746598 34.477845 12.929053
2009-07-10 07:17:37 51°13.662 2°55.96 22.5079 4.746806 34.478273 12.963877
2009-07-10 07:17:42 51°13.662 2°55.96 22.5092 4.746806 34.478273 12.963877
2009-07-10 07:17:46 51°13.663 2°55.96 22.5151 4.746598 34.477845 12.929053
2009-07-10 07:17:52 51°13.663 2°55.96 22.5082 4.746598 34.477213 12.929053
2009-07-10 07:17:57 51°13.663 2°55.96 22.5172 4.746598 34.479741 12.929053
2009-07-10 07:18:01 51°13.663 2°55.959 22.5167 4.746494 34.478262 12.929053
2009-07-10 07:18:07 51°13.663 2°55.96 22.5184 4.746494 34.480159 12.894229
2009-07-10 07:18:12 51°13.663 2°55.96 22.5085 4.746494 34.480159 12.894229
2009-07-10 07:18:17 51°13.662 2°55.96 22.5064 4.746494 34.479526 12.894229
2009-07-10 07:18:21 51°13.662 2°55.96 22.5104 4.746598 34.482269 12.894229
2009-07-10 07:18:26 51°13.662 2°55.96 22.5088 4.74639 34.479312 12.894229
2009-07-10 07:18:32 51°13.662 2°55.96 22.5061 4.746494 34.480159 12.894229
2009-07-10 07:18:37 51°13.662 2°55.96 22.5103 4.74639 34.479312 12.894229
2009-07-10 07:18:42 51°13.662 2°55.96 22.5121 4.74639 34.479312 12.894229
2009-07-10 07:18:47 51°13.662 2°55.96 22.5125 4.746079 34.476773 12.894229
2009-07-10 07:18:52 51°13.662 2°55.96 22.5149 4.746598 34.481005 12.894229
2009-07-10 07:18:57 51°13.662 2°55.96 22.5077 4.745975 34.474663 12.859405
2009-07-10 07:19:01 51°13.662 2°55.96 22.5113 4.746494 34.480159 12.859405
2009-07-10 07:19:07 51°13.662 2°55.96 22.5045 4.746286 34.478466 12.859405
2009-07-10 07:19:11 51°13.662 2°55.96 22.5105 4.746286 34.478466 12.859405
2009-07-10 07:19:17 51°13.662 2°55.96 22.5176 4.746182 34.478884 12.859405
2009-07-10 07:19:21 51°13.662 2°55.96 22.5173 4.746079 34.478037 12.824581
2009-07-10 07:19:26 51°13.662 2°55.96 22.513 4.746079 34.479302 12.824581
2009-07-10 07:19:32 51°13.663 2°55.96 22.5187 4.745975 34.477823 12.824581
2009-07-10 07:19:37 51°13.663 2°55.96 22.523 4.746286 34.480994 12.824581
2009-07-10 07:19:41 51°13.662 2°55.96 22.5226 4.746286 34.480994 12.824581
2009-07-10 07:19:47 51°13.663 2°55.96 22.5238 4.745767 34.47613 12.824581
2009-07-10 07:19:52 51°13.662 2°55.96 22.5237 4.746183 34.479516 12.824581
2009-07-10 07:19:57 51°13.662 2°55.96 22.5244 4.745871 34.477609 12.824581
2009-07-10 07:20:01 51°13.662 2°55.96 22.5228 4.745767 34.475498 12.824581
2009-07-10 07:20:07 51°13.662 2°55.96 22.5262 4.746079 34.479302 12.824581
2009-07-10 07:20:12 51°13.662 2°55.96 22.5246 4.746079 34.479302 12.824581
2009-07-10 07:20:17 51°13.662 2°55.96 22.5202 4.745767 34.475498 12.824581
2009-07-10 07:20:21 51°13.662 2°55.96 22.5235 4.745975 34.477191 12.824581
2009-07-10 07:20:27 51°13.662 2°55.96 22.5211 4.745663 34.475284 12.789757
2009-07-10 07:20:31 51°13.662 2°55.96 22.5182 4.745767 34.474866 12.824581
2009-07-10 07:20:37 51°13.662 2°55.96 22.5146 4.745871 34.477609 12.789757
2009-07-10 07:20:41 51°13.662 2°55.96 22.5298 4.745871 34.477609 12.789757
2009-07-10 07:20:47 51°13.662 2°55.96 22.5328 4.745663 34.474652 12.789757
2009-07-10 07:20:52 51°13.662 2°55.96 22.5352 4.745975 34.479087 12.789757
2009-07-10 07:20:57 51°13.662 2°55.96 22.5298 4.745559 34.474438 12.789757
2009-07-10 07:21:02 51°13.662 2°55.96 22.53 4.745767 34.47613 12.789757
2009-07-10 07:21:07 51°13.662 2°55.96 22.5273 4.745663 34.475284 12.754933
2009-07-10 07:21:12 51°13.662 2°55.96 22.5323 4.745663 34.475284 12.754933
2009-07-10 07:21:17 51°13.662 2°55.96 22.5305 4.745663 34.475284 12.754933
2009-07-10 07:21:22 51°13.662 2°55.96 22.5252 4.745559 34.474438 12.754933
2009-07-10 07:21:27 51°13.662 2°55.96 22.5302 4.745767 34.477395 12.754933
2009-07-10 07:21:32 51°13.662 2°55.96 22.5349 4.745559 34.47507 12.754933
2009-07-10 07:21:37 51°13.662 2°55.96 22.5338 4.745767 34.476763 12.720109
2009-07-10 07:21:42 51°13.662 2°55.96 22.5303 4.745767 34.476763 12.720109
2009-07-10 07:21:47 51°13.662 2°55.96 22.5259 4.745559 34.475702 12.720109
2009-07-10 07:21:52 51°13.662 2°55.96 22.5384 4.745663 34.475284 12.754933
2009-07-10 07:21:57 51°13.663 2°55.96 22.5378 4.745559 34.475702 12.720109
2009-07-10 07:22:01 51°13.662 2°55.96 22.5367 4.745559 34.474438 12.754933
2009-07-10 07:22:07 51°13.663 2°55.96 22.532 4.745559 34.47507 12.720109
2009-07-10 07:22:12 51°13.662 2°55.96 22.5331 4.745559 34.47507 12.720109
2009-07-10 07:22:17 51°13.662 2°55.96 22.5309 4.745351 34.472745 12.720109
2009-07-10 07:22:21 51°13.662 2°55.96 22.5317 4.745767 34.478027 12.720109
2009-07-10 07:22:27 51°13.663 2°55.96 22.5344 4.745352 34.474641 12.685285
2009-07-10 07:22:32 51°13.662 2°55.96 22.5373 4.745455 34.473591 12.720109
2009-07-10 07:22:37 51°13.662 2°55.96 22.5297 4.745559 34.475702 12.685285
2009-07-10 07:22:42 51°13.663 2°55.96 22.5202 4.745559 34.475702 12.685285
2009-07-10 07:22:46 51°13.662 2°55.96 22.5343 4.745559 34.477598 12.685285
2009-07-10 07:22:52 51°13.663 2°55.96 22.5327 4.745248 34.474427 12.685285
2009-07-10 07:22:57 51°13.662 2°55.96 22.5356 4.745663 34.479077 12.685285
2009-07-10 07:23:02 51°13.662 2°55.96 22.5377 4.745144 34.475477 12.685285
2009-07-10 07:23:07 51°13.662 2°55.96 22.5301 4.745352 34.47717 12.685285
2009-07-10 07:23:12 51°13.662 2°55.96 22.5357 4.745352 34.47717 12.685285
2009-07-10 07:23:17 51°13.662 2°55.96 22.5188 4.745455 34.478648 12.685285
2009-07-10 07:23:22 51°13.662 2°55.96 22.5226 4.745248 34.476323 12.650461
2009-07-10 07:23:27 51°13.662 2°55.96 22.5273 4.745248 34.477588 12.650461
2009-07-10 07:23:32 51°13.663 2°55.96 22.5374 4.745248 34.476956 12.650461
2009-07-10 07:23:37 51°13.663 2°55.959 22.5215 4.745352 34.479699 12.650461
2009-07-10 07:23:42 51°13.662 2°55.959 22.5246 4.745352 34.479699 12.650461
2009-07-10 07:23:47 51°13.662 2°55.959 22.5286 4.744936 34.475048 12.650461
2009-07-10 07:23:51 51°13.662 2°55.959 22.5399 4.745248 34.47822 12.650461
2009-07-10 07:23:57 51°13.662 2°55.959 22.5427 4.745248 34.478852 12.615637
2009-07-10 07:24:01 51°13.662 2°55.959 22.5422 4.744832 34.472938 12.650461
2009-07-10 07:24:06 51°13.662 2°55.959 22.5435 4.745248 34.47822 12.615637
2009-07-10 07:24:12 51°13.662 2°55.959 22.5405 4.745248 34.47822 12.615637
2009-07-10 07:24:17 51°13.662 2°55.96 22.5313 4.744832 34.47357 12.615637
2009-07-10 07:24:22 51°13.662 2°55.959 22.5317 4.745144 34.477373 12.615637
2009-07-10 07:24:26 51°13.662 2°55.959 22.5311 4.744832 34.474834 12.615637
2009-07-10 07:24:32 51°13.662 2°55.959 22.542 4.745144 34.476741 12.615637
2009-07-10 07:24:37 51°13.662 2°55.959 22.5389 4.744728 34.473988 12.615637
2009-07-10 07:24:41 51°13.663 2°55.959 22.5489 4.744728 34.473988 12.615637
2009-07-10 07:24:47 51°13.663 2°55.959 22.5357 4.744936 34.475048 12.615637
2009-07-10 07:24:51 51°13.663 2°55.959 22.5434 4.744936 34.476313 12.580813
2009-07-10 07:24:57 51°13.663 2°55.959 22.5377 4.744521 34.471663 12.580813
2009-07-10 07:25:01 51°13.663 2°55.959 22.5406 4.745144 34.478638 12.580813
2009-07-10 07:25:07 51°13.662 2°55.96 22.5408 4.744624 34.473141 12.580813
2009-07-10 07:25:11 51°13.662 2°55.96 22.5419 4.744624 34.473141 12.580813
2009-07-10 07:25:17 51°13.662 2°55.959 22.5467 4.744728 34.473988 12.580813
2009-07-10 07:25:22 51°13.662 2°55.959 22.5416 4.744728 34.475252 12.545989
2009-07-10 07:25:27 51°13.662 2°55.959 22.5435 4.744728 34.47462 12.580813
2009-07-10 07:25:31 51°13.662 2°55.959 22.545 4.744521 34.472927 12.545989
2009-07-10 07:25:37 51°13.662 2°55.959 22.5453 4.744728 34.475252 12.545989
2009-07-10 07:25:42 51°13.663 2°55.959 22.544 4.744728 34.475252 12.545989
2009-07-10 07:25:47 51°13.663 2°55.959 22.5406 4.744625 34.475038 12.545989
2009-07-10 07:25:52 51°13.663 2°55.959 22.541 4.744625 34.475038 12.545989
2009-07-10 07:25:57 51°13.663 2°55.959 22.541 4.744625 34.47567 12.545989
2009-07-10 07:26:01 51°13.663 2°55.959 22.5435 4.744625 34.47567 12.545989
2009-07-10 07:26:07 51°13.662 2°55.959 22.5565 4.744624 34.473773 12.545989
2009-07-10 07:26:12 51°13.662 2°55.96 22.5467 4.744624 34.473773 12.545989
2009-07-10 07:26:17 51°13.662 2°55.96 22.5569 4.744521 34.474191 12.511165
2009-07-10 07:26:21 51°13.662 2°55.96 22.557 4.744417 34.470184 12.545989
2009-07-10 07:26:27 51°13.662 2°55.96 22.5621 4.744832 34.476098 12.511165
2009-07-10 07:26:32 51°13.662 2°55.96 22.555 4.744105 34.467645 12.511165
2009-07-10 07:26:37 51°13.662 2°55.96 22.563 4.744936 34.475681 12.511165
2009-07-10 07:26:41 51°13.662 2°55.96 22.5581 4.744936 34.475681 12.511165
2009-07-10 07:26:47 51°13.662 2°55.96 22.56 4.744209 34.468491 12.511165
2009-07-10 07:26:52 51°13.662 2°55.96 22.5573 4.744624 34.471877 12.511165
2009-07-10 07:26:57 51°13.662 2°55.96 22.5647 4.744624 34.471877 12.476341
2009-07-10 07:27:01 51°13.662 2°55.96 22.5652 4.744417 34.469552 12.511165
2009-07-10 07:27:05 51°13.662 2°55.96 22.5649 4.744521 34.47103 12.476341
2009-07-10 07:27:11 51°13.662 2°55.96 22.5623 4.744521 34.47103 12.476341
2009-07-10 07:27:17 51°13.662 2°55.959 22.5651 4.744521 34.471663 12.476341
2009-07-10 07:27:21 51°13.662 2°55.959 22.5672 4.744624 34.474405 12.476341
2009-07-10 07:27:26 51°13.662 2°55.959 22.5637 4.744417 34.471448 12.476341
2009-07-10 07:27:32 51°13.662 2°55.959 22.562 4.744625 34.475038 12.441517
2009-07-10 07:27:37 51°13.662 2°55.959 22.5623 4.744624 34.474405 12.476341
2009-07-10 07:27:42 51°13.662 2°55.96 22.5646 4.744624 34.474405 12.476341
2009-07-10 07:27:47 51°13.662 2°55.96 22.5684 4.744417 34.469552 12.476341
2009-07-10 07:27:51 51°13.662 2°55.96 22.5636 4.744521 34.47103 12.441517
2009-07-10 07:27:57 51°13.662 2°55.96 22.5676 4.744728 34.471459 12.476341
2009-07-10 07:28:02 51°13.662 2°55.96 22.5707 4.744728 34.471459 12.441517
2009-07-10 07:28:07 51°13.662 2°55.96 22.5692 4.744521 34.468502 12.441517
2009-07-10 07:28:12 51°13.662 2°55.96 22.5634 4.744521 34.468502 12.441517
2009-07-10 07:28:17 51°13.662 2°55.96 22.566 4.744832 34.47357 12.441517
2009-07-10 07:28:21 51°13.662 2°55.96 22.5686 4.744624 34.470613 12.441517
2009-07-10 07:28:27 51°13.663 2°55.96 22.5591 4.744521 34.471663 12.441517
2009-07-10 07:28:32 51°13.663 2°55.96 22.5693 4.744936 34.477577 12.406692
2009-07-10 07:28:37 51°13.662 2°55.96 22.5723 4.744624 34.473773 12.406692
2009-07-10 07:28:41 51°13.662 2°55.96 22.5729 4.744624 34.473773 12.406692
2009-07-10 07:28:47 51°13.662 2°55.96 22.5762 4.744728 34.47462 12.406692
2009-07-10 07:28:52 51°13.662 2°55.96 22.5713 4.744521 34.471663 12.406692
2009-07-10 07:28:57 51°13.662 2°55.96 22.5675 4.744728 34.475884 12.406692
2009-07-10 07:29:01 51°13.662 2°55.96 22.5739 4.744624 34.474405 12.406692
2009-07-10 07:29:06 51°13.662 2°55.96 22.574 4.744728 34.475884 12.406692
2009-07-10 07:29:12 51°13.662 2°55.96 22.5809 4.744728 34.475884 12.406692
2009-07-10 07:29:17 51°13.662 2°55.96 22.5833 4.744521 34.472927 12.406692
2009-07-10 07:29:21 51°13.662 2°55.96 22.5774 4.744832 34.476731 12.371868
2009-07-10 07:29:27 51°13.662 2°55.96 22.5811 4.744625 34.475038 12.371868
2009-07-10 07:29:31 51°13.662 2°55.96 22.5793 4.744625 34.475038 12.371868
2009-07-10 07:29:37 51°13.662 2°55.96 22.5815 4.744728 34.475252 12.371868
2009-07-10 07:29:42 51°13.662 2°55.96 22.5821 4.744728 34.475252 12.371868
2009-07-10 07:29:47 51°13.662 2°55.96 22.5816 4.744521 34.473559 12.371868
2009-07-10 07:29:51 51°13.662 2°55.96 22.5803 4.744728 34.475884 12.371868
2009-07-10 07:29:57 51°13.662 2°55.959 22.5799 4.744625 34.47567 12.371868
2009-07-10 07:30:02 51°13.662 2°55.959 22.5802 4.744521 34.474191 12.371868
2009-07-10 07:30:07 51°13.662 2°55.959 22.5807 4.744728 34.476516 12.337044
2009-07-10 07:30:11 51°13.662 2°55.959 22.5835 4.744728 34.476516 12.337044
2009-07-10 07:30:17 51°13.662 2°55.959 22.5816 4.744521 34.474191 12.337044
2009-07-10 07:30:21 51°13.662 2°55.959 22.5845 4.744728 34.475884 12.337044
2009-07-10 07:30:26 51°13.661 2°55.959 22.5859 4.744521 34.473559 12.337044
2009-07-10 07:30:32 51°13.661 2°55.959 22.5883 4.744521 34.473559 12.337044
2009-07-10 07:30:37 51°13.661 2°55.959 22.5853 4.744625 34.475038 12.337044
2009-07-10 07:30:42 51°13.661 2°55.959 22.583 4.744625 34.475038 12.337044
2009-07-10 07:30:46 51°13.661 2°55.959 22.5362 4.744521 34.474823 12.337044
2009-07-10 07:30:52 51°13.661 2°55.958 22.5654 4.744625 34.47567 12.337044
2009-07-10 07:30:57 51°13.662 2°55.957 22.5018 4.744521 34.474823 12.30222
2009-07-10 07:31:01 51°13.662 2°55.955 22.5741 4.744625 34.47567 12.30222
2009-07-10 07:31:07 51°13.663 2°55.951 22.5714 4.744313 34.47313 12.30222
2009-07-10 07:31:12 51°13.664 2°55.947 22.5758 4.744313 34.47313 12.30222
2009-07-10 07:31:17 51°13.665 2°55.943 22.5667 4.744521 34.474191 12.30222
2009-07-10 07:31:23 51°13.666 2°55.937 22.5775 4.744625 34.476934 12.30222
2009-07-10 07:31:29 51°13.668 2°55.93 22.5695 4.744313 34.472498 12.30222
2009-07-10 07:31:34 51°13.67 2°55.923 22.582 4.744625 34.477567 12.267396
2009-07-10 07:31:40 51°13.672 2°55.916 22.5833 4.744313 34.474395 12.267396
2009-07-10 07:31:45 51°13.674 2°55.909 22.5675 4.744313 34.474395 12.267396
2009-07-10 07:31:50 51°13.676 2°55.902 22.5847 4.744417 34.477771 12.267396
2009-07-10 07:31:55 51°13.678 2°55.895 22.5767 4.744521 34.47672 12.267396
2009-07-10 07:32:01 51°13.68 2°55.887 22.5813 4.744313 34.476292 12.267396
2009-07-10 07:32:05 51°13.681 2°55.881 22.5821 4.744105 34.473966 12.267396
2009-07-10 07:32:10 51°13.683 2°55.873 22.5788 4.744521 34.480515 12.232572
2009-07-10 07:32:15 51°13.684 2°55.865 22.5745 4.744521 34.480515 12.232572
2009-07-10 07:32:20 51°13.686 2°55.857 22.5936 4.744209 34.47671 12.232572
2009-07-10 07:32:25 51°13.688 2°55.849 22.5908 4.744001 34.473752 12.267396
2009-07-10 07:32:30 51°13.689 2°55.842 22.5932 4.744417 34.479668 12.232572
2009-07-10 07:32:35 51°13.691 2°55.834 22.5979 4.744209 34.474813 12.232572
2009-07-10 07:32:40 51°13.692 2°55.827 22.5936 4.744313 34.476292 12.232572
2009-07-10 07:32:45 51°13.693 2°55.819 22.5915 4.744313 34.476292 12.232572
2009-07-10 07:32:50 51°13.695 2°55.811 22.5895 4.744001 34.471223 12.232572
2009-07-10 07:32:55 51°13.696 2°55.803 22.604 4.744209 34.474813 12.197748
2009-07-10 07:33:00 51°13.697 2°55.796 22.6035 4.744105 34.473334 12.232572
2009-07-10 07:33:05 51°13.699 2°55.789 22.6036 4.744313 34.475659 12.197748
2009-07-10 07:33:10 51°13.7 2°55.782 22.6037 4.743897 34.469744 12.232572
2009-07-10 07:33:15 51°13.701 2°55.775 22.6018 4.743897 34.469744 12.232572
2009-07-10 07:33:21 51°13.702 2°55.768 22.6009 4.744417 34.475874 12.197748
2009-07-10 07:33:25 51°13.703 2°55.763 22.5968 4.74369 34.469316 12.197748
2009-07-10 07:33:30 51°13.703 2°55.759 22.6176 4.744313 34.480719 12.197748
2009-07-10 07:33:35 51°13.704 2°55.757 22.6194 4.744105 34.478393 12.162924
2009-07-10 07:33:41 51°13.704 2°55.757 22.6154 4.743897 34.474802 12.197748
2009-07-10 07:33:45 51°13.704 2°55.758 22.6194 4.743897 34.474802 12.197748
2009-07-10 07:33:50 51°13.705 2°55.759 22.5982 4.744313 34.480086 12.162924
2009-07-10 07:33:55 51°13.705 2°55.762 22.5943 4.744209 34.475445 12.197748
2009-07-10 07:34:01 51°13.706 2°55.763 22.533 4.74369 34.462995 12.30222
2009-07-10 07:34:05 51°13.706 2°55.763 22.5827 4.744313 34.474395 12.162924
2009-07-10 07:34:10 51°13.706 2°55.763 22.5877 4.743897 34.466584 12.232572
2009-07-10 07:34:14 51°13.705 2°55.761 22.5914 4.743897 34.466584 12.232572
2009-07-10 07:34:19 51°13.703 2°55.759 22.5841 4.744209 34.467859 12.197748
2009-07-10 07:34:25 51°13.701 2°55.755 22.5811 4.743897 34.464688 12.197748
2009-07-10 07:34:29 51°13.699 2°55.752 22.5804 4.744105 34.466381 12.197748
2009-07-10 07:34:34 51°13.697 2°55.748 22.5967 4.744521 34.473559 12.162924
2009-07-10 07:34:41 51°13.694 2°55.743 22.6024 4.743897 34.469112 12.162924
2009-07-10 07:34:45 51°13.693 2°55.742 22.6204 4.743897 34.469112 12.162924
2009-07-10 07:34:50 51°13.692 2°55.741 22.6255 4.744313 34.480086 12.1281
2009-07-10 07:34:55 51°13.692 2°55.741 22.6329 4.744417 34.481565 12.1281
2009-07-10 07:35:00 51°13.693 2°55.742 22.6325 4.744105 34.480923 12.093276
2009-07-10 07:35:05 51°13.695 2°55.744 22.6357 4.744105 34.478393 12.162924
2009-07-10 07:35:10 51°13.698 2°55.746 22.5867 4.744625 34.481994 12.1281
2009-07-10 07:35:15 51°13.7 2°55.748 22.568 4.744625 34.481994 12.1281
2009-07-10 07:35:20 51°13.702 2°55.749 22.5488 4.743897 34.467216 12.197748
2009-07-10 07:35:25 51°13.703 2°55.75 22.5838 4.744105 34.476496 12.093276
2009-07-10 07:35:30 51°13.703 2°55.751 22.5955 4.744313 34.475027 12.162924
2009-07-10 07:35:35 51°13.702 2°55.751 22.5907 4.744313 34.473763 12.1281
2009-07-10 07:35:40 51°13.701 2°55.752 22.5971 4.743793 34.464474 12.197748
2009-07-10 07:35:45 51°13.7 2°55.752 22.6064 4.743793 34.464474 12.197748
2009-07-10 07:35:50 51°13.699 2°55.753 22.6188 4.744521 34.475456 12.093276
2009-07-10 07:35:55 51°13.7 2°55.753 22.6208 4.743482 34.470151 12.058452
2009-07-10 07:36:00 51°13.701 2°55.754 22.6361 4.744625 34.484524 12.058452
2009-07-10 07:36:05 51°13.704 2°55.754 22.6303 4.74369 34.476903 12.058452
2009-07-10 07:36:10 51°13.707 2°55.753 22.6484 4.744313 34.480086 12.162924
2009-07-10 07:36:15 51°13.711 2°55.751 22.6369 4.744313 34.480086 12.162924
2009-07-10 07:36:20 51°13.715 2°55.749 22.6182 4.744313 34.478821 12.1281
2009-07-10 07:36:25 51°13.719 2°55.744 22.5962 4.743586 34.463413 12.232572
2009-07-10 07:36:29 51°13.723 2°55.74 22.6077 4.744625 34.478832 12.1281
2009-07-10 07:36:34 51°13.728 2°55.734 22.592 4.743586 34.467837 12.1281
2009-07-10 07:36:39 51°13.734 2°55.728 22.583 4.744625 34.478199 12.1281
2009-07-10 07:36:44 51°13.74 2°55.721 22.5658 4.744625 34.478199 12.1281
2009-07-10 07:36:49 51°13.747 2°55.714 22.5851 4.743897 34.472273 12.058452
2009-07-10 07:36:53 51°13.753 2°55.708 22.5644 4.744521 34.477985 12.058452
2009-07-10 07:36:58 51°13.76 2°55.7 22.5663 4.744209 34.477975 12.058452
2009-07-10 07:37:03 51°13.768 2°55.692 22.5808 4.744001 34.47312 12.093276
2009-07-10 07:37:08 51°13.776 2°55.684 22.5771 4.744001 34.480709 12.023628
2009-07-10 07:37:13 51°13.784 2°55.676 22.6024 4.744001 34.480709 12.023628
2009-07-10 07:37:17 51°13.791 2°55.67 22.5853 4.744209 34.47924 12.093276
2009-07-10 07:37:22 51°13.8 2°55.661 22.5858 4.744209 34.482402 12.023628
2009-07-10 07:37:27 51°13.809 2°55.653 22.5886 4.74369 34.476903 12.023628
2009-07-10 07:37:32 51°13.818 2°55.645 22.5999 4.744105 34.48029 12.058452
2009-07-10 07:37:37 51°13.827 2°55.637 22.5971 4.743898 34.479862 12.023628
2009-07-10 07:37:41 51°13.835 2°55.631 22.6018 4.743898 34.479862 12.023628
2009-07-10 07:37:46 51°13.845 2°55.623 22.5951 4.743898 34.477332 12.093276
2009-07-10 07:37:52 51°13.856 2°55.614 22.6029 4.744001 34.480709 12.023628
2009-07-10 07:37:57 51°13.866 2°55.606 22.6075 4.743482 34.47774 12.023628
2009-07-10 07:38:01 51°13.874 2°55.599 22.6074 4.744313 34.487045 12.058452
2009-07-10 07:38:05 51°13.882 2°55.593 22.6061 4.743586 34.476689 12.058452
2009-07-10 07:38:12 51°13.895 2°55.582 22.6007 4.743586 34.476689 12.058452
2009-07-10 07:38:17 51°13.905 2°55.574 22.6065 4.743794 34.480913 12.023628
2009-07-10 07:38:21 51°13.913 2°55.568 22.6088 4.743794 34.48028 12.023628
2009-07-10 07:38:26 51°13.923 2°55.56 22.612 4.743898 34.477332 12.058452
2009-07-10 07:38:32 51°13.936 2°55.551 22.6091 4.74369 34.475638 12.023628
2009-07-10 07:38:37 51°13.946 2°55.544 22.6133 4.744105 34.47776 12.023628
2009-07-10 07:38:42 51°13.956 2°55.536 22.613 4.744105 34.47776 12.023628
2009-07-10 07:38:46 51°13.964 2°55.53 22.6141 4.743378 34.469937 12.023628
2009-07-10 07:38:52 51°13.976 2°55.52 22.6209 4.744105 34.477128 12.023628
2009-07-10 07:38:57 51°13.986 2°55.513 22.6032 4.743378 34.470569 12.023628
2009-07-10 07:39:02 51°13.997 2°55.505 22.6087 4.743794 34.48028 11.988804
2009-07-10 07:39:07 51°14.007 2°55.498 22.6273 4.743794 34.481546 11.988804
2009-07-10 07:39:11 51°14.016 2°55.492 22.6246 4.743794 34.481546 11.988804
2009-07-10 07:39:17 51°14.028 2°55.484 22.6035 4.743898 34.476067 12.093276
2009-07-10 07:39:21 51°14.037 2°55.477 22.6185 4.74317 34.470773 11.988804
2009-07-10 07:39:26 51°14.047 2°55.47 22.6173 4.743794 34.479015 11.988804
2009-07-10 07:39:32 51°14.06 2°55.461 22.6016 4.743586 34.474792 12.058452
2009-07-10 07:39:37 51°14.07 2°55.453 22.6224 4.74369 34.471844 12.058452
2009-07-10 07:39:42 51°14.081 2°55.445 22.6253 4.74369 34.471844 12.058452
2009-07-10 07:39:46 51°14.089 2°55.439 22.6346 4.743482 34.475842 11.95398
2009-07-10 07:39:52 51°14.102 2°55.431 22.6294 4.744209 34.479872 12.023628
2009-07-10 07:39:57 51°14.112 2°55.422 22.6181 4.743274 34.470987 12.023628
2009-07-10 07:40:01 51°14.12 2°55.416 22.6276 4.743482 34.473945 12.023628
2009-07-10 07:40:07 51°14.132 2°55.407 22.6261 4.744313 34.483249 11.988804
2009-07-10 07:40:12 51°14.142 2°55.399 22.6125 4.744313 34.483249 11.988804
2009-07-10 07:40:17 51°14.152 2°55.39 22.6371 4.74317 34.471405 12.023628
2009-07-10 07:40:21 51°14.16 2°55.383 22.6459 4.744313 34.482616 12.023628
2009-07-10 07:40:27 51°14.171 2°55.372 22.6204 4.743482 34.473945 11.988804
2009-07-10 07:40:32 51°14.181 2°55.362 22.6495 4.744209 34.483667 11.95398
2009-07-10 07:40:37 51°14.19 2°55.352 22.6266 4.743274 34.470355 12.023628
2009-07-10 07:40:41 51°14.197 2°55.344 22.6248 4.743274 34.470355 12.023628
2009-07-10 07:40:46 51°14.206 2°55.333 22.6065 4.743794 34.475853 11.988804
2009-07-10 07:40:52 51°14.216 2°55.319 22.6294 4.743274 34.470987 11.988804
2009-07-10 07:40:57 51°14.225 2°55.307 22.6123 4.743794 34.479648 11.95398
2009-07-10 07:41:02 51°14.234 2°55.295 22.6361 4.744001 34.480076 11.988804
2009-07-10 07:41:07 51°14.242 2°55.282 22.6278 4.743378 34.473731 11.988804
2009-07-10 07:41:12 51°14.251 2°55.269 22.6252 4.743378 34.473731 11.988804
2009-07-10 07:41:17 51°14.259 2°55.255 22.6387 4.743586 34.476057 11.988804
2009-07-10 07:41:22 51°14.267 2°55.241 22.6167 4.743898 34.480494 11.988804
2009-07-10 07:41:27 51°14.276 2°55.227 22.6019 4.744002 34.488934 11.919156
2009-07-10 07:41:32 51°14.285 2°55.212 22.6013 4.744106 34.494846 11.919156
2009-07-10 07:41:37 51°14.294 2°55.198 22.6195 4.743898 34.48872 11.95398
2009-07-10 07:41:41 51°14.301 2°55.186 22.5988 4.743898 34.48872 11.95398
2009-07-10 07:41:47 51°14.312 2°55.168 22.6231 4.743482 34.482168 11.884332
2009-07-10 07:41:52 51°14.32 2°55.153 22.6026 4.743482 34.481536 11.919156
2009-07-10 07:41:57 51°14.329 2°55.137 22.5764 4.743274 34.479842 11.95398
2009-07-10 07:42:01 51°14.337 2°55.125 22.6 4.744417 34.482831 12.058452
2009-07-10 07:42:07 51°14.347 2°55.104 22.6105 4.742859 34.465072 11.919156
2009-07-10 07:42:13 51°14.358 2°55.084 22.6252 4.742859 34.465072 11.919156
2009-07-10 07:42:18 51°14.367 2°55.067 22.6216 4.743482 34.47521 11.919156